M I D A S
Marine Information and Data Acquisition System
Tripno 1934 of the Zeeleeuw from 2010-08-10 06:22:44 to 2010-08-10 14:52:31
Back to CruiseResearch ActivitiesStationsMapUnderway DataData graphs

EquipmentUnitsComment
TimeDGPSUTC
LatitudeDGPSDM.mWGS84
LongitudeDGPSDM.mWGS84
TemperatureSBE03/SBE38deg celciusITS90
ConductivitySBE21S/mITS90
SalinitySBE21 Practical Salinity Units
ChlorophylAChelsea fluorimeterg/lCalibrated in Aceton
Missing or incorrect values are displayed as -999
Sea surface data collected by the RV Zeeleeuw from 2010-08-10 06:19:19 to 2010-08-10 14:59:33
                                                                                    Next 1000 lines
Time Latitude Longitude Temperature Conductivity Salinity ChlorophylA
2010-08-10 06:19:29 51°13.662 2°55.959 21.7679 0.070468 0.361361 -0.965744
2010-08-10 06:19:33 51°13.662 2°55.957 21.7431 0.070468 0.361361 -1.000568
2010-08-10 06:19:38 51°13.663 2°55.953 21.7783 0.070468 0.361367 -0.965744
2010-08-10 06:19:43 51°13.665 2°55.949 21.7783 0.070468 0.361367 -0.965744
2010-08-10 06:19:49 51°13.666 2°55.942 21.7905 0.070468 0.361372 -0.965744
2010-08-10 06:19:54 51°13.668 2°55.937 21.7879 0.070468 0.361367 -1.000568
2010-08-10 06:20:00 51°13.67 2°55.929 21.7852 0.070468 0.361377 -0.965744
2010-08-10 06:20:05 51°13.673 2°55.923 21.7849 0.070572 0.361933 -1.000568
2010-08-10 06:20:10 51°13.675 2°55.915 21.7971 0.070572 0.361938 -1.000568
2010-08-10 06:20:15 51°13.678 2°55.907 21.796 0.070572 0.361938 -1.000568
2010-08-10 06:20:20 51°13.681 2°55.899 21.793 0.070572 0.361938 -0.965744
2010-08-10 06:20:25 51°13.684 2°55.891 21.7871 0.070468 0.361388 -0.965744
2010-08-10 06:20:29 51°13.686 2°55.884 21.7852 0.070468 0.361393 -1.000568
2010-08-10 06:20:35 51°13.688 2°55.875 21.7888 0.070468 0.361393 -1.000568
2010-08-10 06:20:39 51°13.69 2°55.868 21.7916 0.070468 0.361404 -1.000568
2010-08-10 06:20:45 51°13.691 2°55.858 21.7852 0.070468 0.361404 -1.000568
2010-08-10 06:20:50 51°13.693 2°55.849 21.7918 0.070468 0.361399 -1.000568
2010-08-10 06:20:55 51°13.694 2°55.84 21.793 0.070468 0.361399 -0.965744
2010-08-10 06:21:00 51°13.695 2°55.832 21.802 0.070468 0.361404 -0.965744
2010-08-10 06:21:05 51°13.695 2°55.823 21.8006 0.070468 0.361404 -0.965744
2010-08-10 06:21:10 51°13.696 2°55.814 21.7951 0.070468 0.361415 -0.965744
2010-08-10 06:21:15 51°13.696 2°55.806 21.7945 0.070468 0.361415 -0.965744
2010-08-10 06:21:20 51°13.696 2°55.797 21.7939 0.070468 0.361409 -0.965744
2010-08-10 06:21:25 51°13.696 2°55.788 21.7935 0.070468 0.361415 -1.000568
2010-08-10 06:21:30 51°13.697 2°55.78 21.7897 0.070468 0.36142 -1.000568
2010-08-10 06:21:35 51°13.696 2°55.771 21.7964 0.070468 0.36142 -0.965744
2010-08-10 06:21:40 51°13.696 2°55.763 21.7986 0.070468 0.361425 -0.965744
2010-08-10 06:21:45 51°13.696 2°55.756 21.7979 0.070468 0.361425 -0.965744
2010-08-10 06:21:50 51°13.696 2°55.749 21.7914 0.070468 0.361431 -0.93092
2010-08-10 06:21:55 51°13.696 2°55.746 21.8184 0.070468 0.361436 -0.965744
2010-08-10 06:22:00 51°13.697 2°55.745 21.806 0.070468 0.361436 -0.965744
2010-08-10 06:22:05 51°13.697 2°55.744 21.8073 0.070468 0.361436 -0.965744
2010-08-10 06:22:10 51°13.698 2°55.745 21.8133 0.070468 0.361441 -1.000568
2010-08-10 06:22:14 51°13.698 2°55.745 21.8019 0.070468 0.361441 -1.000568
2010-08-10 06:22:19 51°13.699 2°55.746 21.7858 0.070468 0.361441 -0.965744
2010-08-10 06:22:24 51°13.7 2°55.747 21.7658 0.070468 0.361447 -0.965744
2010-08-10 06:22:30 51°13.7 2°55.746 21.7879 0.070468 0.361452 -0.965744
2010-08-10 06:22:34 51°13.7 2°55.746 21.7378 0.070468 0.361452 -0.93092
2010-08-10 06:22:39 51°13.699 2°55.744 21.7893 0.070468 0.361447 -1.000568
2010-08-10 06:22:44 51°13.698 2°55.742 21.8001 0.070468 0.361447 -1.000568
2010-08-10 06:22:48 51°13.697 2°55.741 21.8033 0.070468 0.361452 -1.000568
2010-08-10 06:22:54 51°13.695 2°55.739 21.8014 0.070468 0.361441 -0.93092
2010-08-10 06:22:58 51°13.694 2°55.737 21.8013 0.070468 0.361441 -1.000568
2010-08-10 06:23:03 51°13.693 2°55.736 21.8004 0.070468 0.361452 -1.000568
2010-08-10 06:23:09 51°13.691 2°55.734 21.8019 0.070468 0.361452 -1.000568
2010-08-10 06:23:15 51°13.691 2°55.733 21.8041 0.070468 0.361452 -1.000568
2010-08-10 06:23:20 51°13.691 2°55.733 21.8049 0.070468 0.361457 -1.000568
2010-08-10 06:23:25 51°13.691 2°55.733 21.8071 0.070468 0.361468 -0.93092
2010-08-10 06:23:30 51°13.692 2°55.733 21.8087 0.070468 0.361473 -0.965744
2010-08-10 06:23:35 51°13.694 2°55.734 21.8152 0.070468 0.361484 -0.965744
2010-08-10 06:23:40 51°13.696 2°55.734 21.8169 0.070468 0.361489 -0.965744
2010-08-10 06:23:45 51°13.698 2°55.734 21.8217 0.070468 0.361489 -0.965744
2010-08-10 06:23:50 51°13.701 2°55.733 21.8254 0.070468 0.361495 -0.965744
2010-08-10 06:23:55 51°13.704 2°55.732 21.8253 0.070468 0.361495 -0.965744
2010-08-10 06:24:00 51°13.707 2°55.731 21.8267 0.070468 0.361495 -1.000568
2010-08-10 06:24:05 51°13.711 2°55.728 21.827 0.070468 0.3615 -1.000568
2010-08-10 06:24:10 51°13.716 2°55.725 21.825 0.070468 0.361489 -0.965744
2010-08-10 06:24:14 51°13.721 2°55.722 21.823 0.070468 0.361489 -0.965744
2010-08-10 06:24:19 51°13.728 2°55.717 21.808 0.070468 0.361489 -1.000568
2010-08-10 06:24:24 51°13.735 2°55.711 21.8086 0.070468 0.361479 -0.965744
2010-08-10 06:24:30 51°13.745 2°55.704 21.7818 0.070468 0.361484 -1.000568
2010-08-10 06:24:35 51°13.754 2°55.696 21.7798 0.070468 0.361489 -1.000568
2010-08-10 06:24:39 51°13.762 2°55.69 21.7656 0.070468 0.3615 -1.000568
2010-08-10 06:24:44 51°13.772 2°55.682 21.7597 0.070468 0.3615 -1.000568
2010-08-10 06:24:49 51°13.783 2°55.674 21.7694 0.070468 0.361505 -0.965744
2010-08-10 06:24:54 51°13.794 2°55.665 21.7706 0.070468 0.361511 -0.965744
2010-08-10 06:24:59 51°13.805 2°55.656 21.7488 0.070468 0.361516 -0.965744
2010-08-10 06:25:03 51°13.814 2°55.649 21.7435 0.070468 0.361521 -0.965744
2010-08-10 06:25:08 51°13.826 2°55.639 21.7301 0.070468 0.361521 -0.965744
2010-08-10 06:25:14 51°13.841 2°55.629 21.7454 0.070468 0.361521 -0.965744
2010-08-10 06:25:19 51°13.853 2°55.619 21.7424 0.070468 0.361521 -0.965744
2010-08-10 06:25:23 51°13.863 2°55.612 21.7357 0.070468 0.361537 -1.000568
2010-08-10 06:25:28 51°13.876 2°55.602 21.7341 0.070468 0.361537 -0.965744
2010-08-10 06:25:33 51°13.889 2°55.593 21.7401 0.070468 0.361543 -1.000568
2010-08-10 06:25:38 51°13.902 2°55.584 21.7289 0.070468 0.361553 -1.000568
2010-08-10 06:25:43 51°13.915 2°55.575 21.7348 0.070468 0.361553 -1.000568
2010-08-10 06:25:47 51°13.925 2°55.568 21.742 0.070468 0.361559 -1.000568
2010-08-10 06:25:52 51°13.939 2°55.559 21.7542 0.070468 0.361559 -0.965744
2010-08-10 06:25:57 51°13.953 2°55.551 21.7619 0.070468 0.361559 -0.965744
2010-08-10 06:26:02 51°13.966 2°55.542 21.7704 0.070468 0.361569 -0.965744
2010-08-10 06:26:07 51°13.98 2°55.534 21.7849 0.070468 0.361564 -1.000568
2010-08-10 06:26:11 51°13.991 2°55.526 21.7747 0.070468 0.361564 -1.000568
2010-08-10 06:26:16 51°14.004 2°55.517 21.7607 0.070468 0.36158 -0.965744
2010-08-10 06:26:21 51°14.018 2°55.507 21.7672 0.070468 0.361575 -1.000568
2010-08-10 06:26:27 51°14.034 2°55.497 21.7855 0.070468 0.361569 -0.965744
2010-08-10 06:26:31 51°14.045 2°55.489 21.7783 0.070468 0.361575 -1.000568
2010-08-10 06:26:36 51°14.059 2°55.479 21.7847 0.070468 0.36158 -1.000568
2010-08-10 06:26:41 51°14.073 2°55.47 21.7954 0.070468 0.36158 -1.000568
2010-08-10 06:26:46 51°14.087 2°55.46 21.7912 0.070468 0.36158 -0.93092
2010-08-10 06:26:51 51°14.101 2°55.449 21.7949 0.070468 0.361591 -0.965744
2010-08-10 06:26:55 51°14.112 2°55.44 21.7846 0.070468 0.361591 -1.000568
2010-08-10 06:27:01 51°14.129 2°55.426 21.787 0.070468 0.361601 -1.000568
2010-08-10 06:27:06 51°14.143 2°55.415 21.7803 0.070468 0.361596 -0.965744
2010-08-10 06:27:11 51°14.156 2°55.403 21.778 0.070468 0.361596 -0.965744
2010-08-10 06:28:01 51°14.292 2°55.282 21.7719 0.070468 0.361633 -1.000568
2010-08-10 06:28:22 51°14.348 2°55.228 21.7734 0.070468 0.361639 -1.000568
2010-08-10 06:28:48 51°14.416 2°55.159 21.8018 0.070468 0.361649 -1.000568
2010-08-10 06:29:00 51°14.448 2°55.128 21.7817 0.070468 0.361671 -0.965744
2010-08-10 06:29:04 51°14.458 2°55.117 21.7598 0.070468 0.361671 -0.965744
2010-08-10 06:29:24 51°14.511 2°55.062 21.7645 0.070468 0.361676 -0.965744
2010-08-10 06:30:47 51°14.624 2°54.666 21.7876 0.070468 0.361692 -0.965744
2010-08-10 06:30:52 51°14.622 2°54.638 21.7992 0.070468 0.361756 -1.000568
2010-08-10 06:30:57 51°14.619 2°54.61 21.7931 0.070468 0.361756 -0.965744
2010-08-10 06:31:02 51°14.614 2°54.583 21.8037 0.070468 0.361756 -0.965744
2010-08-10 06:31:07 51°14.608 2°54.556 21.8102 0.070468 0.361751 -0.965744
2010-08-10 06:31:12 51°14.6 2°54.53 21.8399 0.070468 0.36174 -0.965744
2010-08-10 06:31:17 51°14.592 2°54.504 21.8263 0.070468 0.36174 -0.965744
2010-08-10 06:31:22 51°14.583 2°54.479 21.7831 0.070468 0.361735 -0.965744
2010-08-10 06:31:26 51°14.576 2°54.458 21.7906 0.070468 0.36173 -0.965744
2010-08-10 06:31:32 51°14.564 2°54.428 21.8067 0.070468 0.361724 -1.000568
2010-08-10 06:31:36 51°14.556 2°54.407 21.822 0.070468 0.36173 -1.000568
2010-08-10 06:31:42 51°14.545 2°54.376 21.8265 0.070468 0.361724 -1.000568
2010-08-10 06:31:48 51°14.533 2°54.344 21.8221 0.070468 0.361724 -1.000568
2010-08-10 06:31:53 51°14.524 2°54.317 21.781 0.070468 0.361735 -0.965744
2010-08-10 06:31:57 51°14.516 2°54.296 21.7758 0.070468 0.361746 -0.965744
2010-08-10 06:32:02 51°14.507 2°54.269 21.7653 0.070468 0.361751 -0.965744
2010-08-10 06:32:07 51°14.497 2°54.242 21.7713 0.070468 0.361756 -1.000568
2010-08-10 06:32:12 51°14.488 2°54.215 21.7802 0.070468 0.361762 -0.965744
2010-08-10 06:32:17 51°14.478 2°54.189 21.774 0.070468 0.361762 -0.965744
2010-08-10 06:32:22 51°14.468 2°54.162 21.796 0.070468 0.361762 -0.965744
2010-08-10 06:32:27 51°14.458 2°54.135 21.7948 0.070468 0.361767 -1.000568
2010-08-10 06:32:32 51°14.449 2°54.108 21.788 0.070468 0.361767 -1.000568
2010-08-10 06:32:37 51°14.439 2°54.082 21.7748 0.070468 0.361783 -0.965744
2010-08-10 06:32:43 51°14.427 2°54.049 21.7689 0.070468 0.361788 -0.965744
2010-08-10 06:32:48 51°14.417 2°54.023 21.7869 0.070468 0.361788 -0.965744
2010-08-10 06:32:53 51°14.407 2°53.996 21.7902 0.070468 0.361794 -1.000568
2010-08-10 06:32:57 51°14.399 2°53.974 21.7929 0.070468 0.361794 -0.965744
2010-08-10 06:33:01 51°14.391 2°53.952 21.7912 0.070468 0.361804 -1.000568
2010-08-10 06:33:07 51°14.379 2°53.92 21.7953 0.070468 0.361804 -1.000568
2010-08-10 06:33:13 51°14.368 2°53.887 21.7942 0.070364 0.361254 -0.965744
2010-08-10 06:33:17 51°14.36 2°53.866 21.7759 0.070364 0.361254 -0.965744
2010-08-10 06:33:22 51°14.35 2°53.839 21.7936 0.070468 0.361804 -1.000568
2010-08-10 06:33:27 51°14.34 2°53.812 21.7814 0.070468 0.36181 -0.965744
2010-08-10 06:33:33 51°14.328 2°53.779 21.7882 0.070468 0.36181 -0.965744
2010-08-10 06:33:37 51°14.32 2°53.757 21.7923 0.070468 0.361804 -0.965744
2010-08-10 06:33:42 51°14.31 2°53.73 21.7946 0.070468 0.36182 -0.965744
2010-08-10 06:33:47 51°14.3 2°53.703 21.7873 0.070468 0.36182 -0.965744
2010-08-10 06:33:52 51°14.29 2°53.675 21.7863 0.070468 0.361815 -0.965744
2010-08-10 06:33:57 51°14.28 2°53.648 21.7904 0.070468 0.36182 -0.965744
2010-08-10 06:34:02 51°14.269 2°53.621 21.7712 0.070468 0.361836 -0.965744
2010-08-10 06:34:07 51°14.259 2°53.593 21.7741 0.070468 0.361831 -0.965744
2010-08-10 06:34:12 51°14.249 2°53.566 21.7953 0.070468 0.361842 -0.965744
2010-08-10 06:34:17 51°14.239 2°53.538 21.7897 0.070468 0.361842 -0.965744
2010-08-10 06:34:21 51°14.231 2°53.516 21.7951 0.070468 0.361836 -0.965744
2010-08-10 06:34:27 51°14.219 2°53.483 21.8018 0.070468 0.361842 -0.965744
2010-08-10 06:34:32 51°14.208 2°53.456 21.7847 0.070468 0.361836 -1.000568
2010-08-10 06:34:37 51°14.198 2°53.428 21.7782 0.070364 0.361291 -1.000568
2010-08-10 06:34:42 51°14.188 2°53.401 21.7933 0.070468 0.361858 -1.035392
2010-08-10 06:34:47 51°14.177 2°53.373 21.7951 0.070468 0.361858 -1.035392
2010-08-10 06:34:53 51°14.164 2°53.341 21.7985 0.070468 0.361853 -1.000568
2010-08-10 06:34:57 51°14.156 2°53.319 21.7915 0.070468 0.361858 -0.965744
2010-08-10 06:35:02 51°14.145 2°53.292 21.7849 0.070468 0.361858 -1.000568
2010-08-10 06:35:07 51°14.135 2°53.264 21.7946 0.070468 0.361858 -1.000568
2010-08-10 06:35:12 51°14.124 2°53.237 21.8026 0.070468 0.361869 -1.000568
2010-08-10 06:35:17 51°14.114 2°53.209 21.793 0.070468 0.361869 -1.000568
2010-08-10 06:35:22 51°14.104 2°53.182 21.8032 0.070468 0.361874 -1.000568
2010-08-10 06:35:27 51°14.094 2°53.154 21.7981 0.070364 0.361329 -0.965744
2010-08-10 06:35:32 51°14.083 2°53.126 21.7879 0.070468 0.361879 -0.965744
2010-08-10 06:35:37 51°14.073 2°53.099 21.7895 0.070468 0.361879 -0.965744
2010-08-10 06:35:42 51°14.062 2°53.071 21.7806 0.070468 0.36189 -0.965744
2010-08-10 06:35:47 51°14.052 2°53.043 21.7975 0.070468 0.36189 -0.965744
2010-08-10 06:35:52 51°14.041 2°53.016 21.7963 0.070468 0.361895 -0.965744
2010-08-10 06:35:57 51°14.031 2°52.988 21.7969 0.070468 0.36189 -1.000568
2010-08-10 06:36:01 51°14.022 2°52.966 21.7994 0.070364 0.36135 -1.000568
2010-08-10 06:36:07 51°14.01 2°52.933 21.7949 0.070468 0.361901 -0.965744
2010-08-10 06:36:12 51°14 2°52.905 21.808 0.070468 0.361906 -1.000568
2010-08-10 06:36:17 51°13.989 2°52.878 21.7833 0.070468 0.361906 -1.000568
2010-08-10 06:36:22 51°13.979 2°52.85 21.803 0.070468 0.361911 -0.965744
2010-08-10 06:36:27 51°13.968 2°52.822 21.7964 0.070468 0.361917 -0.965744
2010-08-10 06:36:32 51°13.958 2°52.795 21.801 0.070364 0.361382 -0.965744
2010-08-10 06:36:37 51°13.947 2°52.767 21.8038 0.070468 0.361943 -0.965744
2010-08-10 06:36:41 51°13.939 2°52.745 21.796 0.070364 0.361387 -1.000568
2010-08-10 06:36:47 51°13.926 2°52.712 21.8008 0.070364 0.361387 -1.000568
2010-08-10 06:36:52 51°13.916 2°52.684 21.808 0.070364 0.361387 -1.000568
2010-08-10 06:36:57 51°13.905 2°52.656 21.789 0.070364 0.361382 -0.965744
2010-08-10 06:37:02 51°13.895 2°52.629 21.8055 0.070468 0.361927 -1.000568
2010-08-10 06:37:07 51°13.884 2°52.601 21.7971 0.070468 0.361922 -0.965744
2010-08-10 06:37:12 51°13.874 2°52.574 21.8049 0.070468 0.361927 -0.965744
2010-08-10 06:37:17 51°13.864 2°52.546 21.7905 0.070468 0.361927 -0.965744
2010-08-10 06:37:21 51°13.855 2°52.524 21.8069 0.070364 0.361382 -1.000568
2010-08-10 06:37:27 51°13.843 2°52.491 21.802 0.070364 0.361398 -1.000568
2010-08-10 06:37:32 51°13.832 2°52.463 21.7877 0.070468 0.36196 -0.965744
2010-08-10 06:37:37 51°13.822 2°52.436 21.8026 0.070364 0.361414 -0.965744
2010-08-10 06:37:42 51°13.811 2°52.408 21.7941 0.070364 0.361425 -0.965744
2010-08-10 06:37:47 51°13.8 2°52.38 21.8016 0.070364 0.361425 -0.965744
2010-08-10 06:37:53 51°13.788 2°52.347 21.8033 0.070468 0.361965 -1.000568
2010-08-10 06:37:57 51°13.779 2°52.325 21.802 0.070468 0.361965 -0.965744
2010-08-10 06:38:02 51°13.769 2°52.297 21.8032 0.070364 0.361409 -0.965744
2010-08-10 06:38:07 51°13.758 2°52.27 21.8112 0.070364 0.361414 -0.965744
2010-08-10 06:38:13 51°13.745 2°52.237 21.8091 0.070364 0.361419 -0.965744
2010-08-10 06:38:17 51°13.737 2°52.215 21.7957 0.070364 0.361419 -0.965744
2010-08-10 06:38:22 51°13.726 2°52.187 21.802 0.070364 0.361425 -1.000568
2010-08-10 06:38:27 51°13.716 2°52.16 21.8058 0.070364 0.36143 -0.965744
2010-08-10 06:38:32 51°13.705 2°52.132 21.8122 0.070364 0.361441 -0.93092
2010-08-10 06:38:37 51°13.694 2°52.104 21.7888 0.070364 0.361441 -0.965744
2010-08-10 06:38:42 51°13.684 2°52.077 21.8147 0.070364 0.361441 -1.000568
2010-08-10 06:38:47 51°13.673 2°52.049 21.8052 0.070364 0.361441 -1.000568
2010-08-10 06:38:52 51°13.663 2°52.021 21.8088 0.070364 0.361446 -0.965744
2010-08-10 06:38:57 51°13.652 2°51.994 21.8127 0.070364 0.361441 -0.965744
2010-08-10 06:39:01 51°13.644 2°51.972 21.7944 0.070364 0.361452 -0.965744
2010-08-10 06:39:07 51°13.631 2°51.939 21.8163 0.070364 0.361452 -0.965744
2010-08-10 06:39:12 51°13.62 2°51.911 21.8066 0.070468 0.362002 -0.965744
2010-08-10 06:39:17 51°13.609 2°51.883 21.8158 0.070468 0.362002 -0.965744
2010-08-10 06:39:22 51°13.599 2°51.855 21.8078 0.070364 0.361457 -0.965744
2010-08-10 06:39:27 51°13.588 2°51.828 21.8164 0.070364 0.361462 -1.000568
2010-08-10 06:39:33 51°13.576 2°51.794 21.8156 0.070364 0.361468 -1.000568
2010-08-10 06:39:37 51°13.567 2°51.772 21.8076 0.070364 0.361473 -0.965744
2010-08-10 06:39:42 51°13.557 2°51.744 21.8206 0.070364 0.361473 -0.965744
2010-08-10 06:39:47 51°13.546 2°51.716 21.8174 0.070364 0.361473 -0.965744
2010-08-10 06:39:52 51°13.536 2°51.688 21.8195 0.070364 0.361478 -0.93092
2010-08-10 06:39:57 51°13.525 2°51.66 21.8104 0.070364 0.361478 -1.000568
2010-08-10 06:40:02 51°13.515 2°51.633 21.7945 0.070364 0.361484 -1.000568
2010-08-10 06:40:07 51°13.504 2°51.605 21.8174 0.070364 0.361489 -0.965744
2010-08-10 06:40:12 51°13.494 2°51.577 21.81 0.070364 0.361484 -1.000568
2010-08-10 06:40:17 51°13.483 2°51.549 21.8207 0.070364 0.361484 -1.000568
2010-08-10 06:40:22 51°13.473 2°51.521 21.8224 0.070364 0.361489 -1.000568
2010-08-10 06:40:27 51°13.462 2°51.493 21.8185 0.070364 0.3615 -0.965744
2010-08-10 06:40:32 51°13.452 2°51.465 21.8206 0.070364 0.3615 -1.000568
2010-08-10 06:40:37 51°13.441 2°51.437 21.8211 0.070364 0.3615 -1.000568
2010-08-10 06:40:41 51°13.433 2°51.415 21.814 0.070364 0.3615 -1.000568
2010-08-10 06:40:47 51°13.421 2°51.381 21.821 0.070364 0.3615 -1.000568
2010-08-10 06:40:52 51°13.41 2°51.353 21.8176 0.070364 0.361505 -0.965744
2010-08-10 06:40:57 51°13.4 2°51.325 21.8163 0.070364 0.361505 -0.965744
2010-08-10 06:41:02 51°13.39 2°51.297 21.8201 0.070364 0.36151 -0.965744
2010-08-10 06:41:07 51°13.379 2°51.269 21.8289 0.070364 0.361516 -1.000568
2010-08-10 06:41:12 51°13.369 2°51.241 21.8265 0.070364 0.361526 -1.000568
2010-08-10 06:41:17 51°13.358 2°51.213 21.8306 0.070364 0.361526 -1.000568
2010-08-10 06:41:21 51°13.35 2°51.191 21.8145 0.070364 0.361526 -0.93092
2010-08-10 06:41:27 51°13.338 2°51.158 21.8209 0.070364 0.361526 -1.000568
2010-08-10 06:41:32 51°13.327 2°51.13 21.824 0.070364 0.361532 -1.000568
2010-08-10 06:41:37 51°13.316 2°51.102 21.8105 0.070364 0.361526 -0.965744
2010-08-10 06:41:42 51°13.306 2°51.074 21.8287 0.070364 0.361526 -1.000568
2010-08-10 06:41:47 51°13.295 2°51.046 21.8242 0.070364 0.361526 -1.000568
2010-08-10 06:41:53 51°13.283 2°51.013 21.8307 0.070364 0.361537 -0.965744
2010-08-10 06:41:57 51°13.275 2°50.991 21.8249 0.070364 0.361542 -1.000568
2010-08-10 06:42:02 51°13.264 2°50.962 21.8251 0.070364 0.361542 -1.000568
2010-08-10 06:42:07 51°13.254 2°50.934 21.8337 0.070364 0.361548 -0.965744
2010-08-10 06:42:12 51°13.244 2°50.906 21.8314 0.070364 0.361553 -1.000568
2010-08-10 06:42:17 51°13.233 2°50.878 21.8319 0.070364 0.361553 -1.000568
2010-08-10 06:42:22 51°13.223 2°50.851 21.8297 0.070364 0.361558 -1.000568
2010-08-10 06:42:27 51°13.212 2°50.823 21.8299 0.070364 0.361564 -0.965744
2010-08-10 06:42:32 51°13.202 2°50.795 21.8192 0.070364 0.361569 -0.965744
2010-08-10 06:42:37 51°13.191 2°50.768 21.823 0.070364 0.361569 -0.965744
2010-08-10 06:42:42 51°13.181 2°50.74 21.8298 0.070364 0.361564 -1.000568
2010-08-10 06:42:47 51°13.17 2°50.712 21.8326 0.070364 0.361564 -1.000568
2010-08-10 06:42:52 51°13.16 2°50.684 21.8282 0.070364 0.361569 -1.000568
2010-08-10 06:42:57 51°13.15 2°50.656 21.8352 0.070364 0.361575 -0.965744
2010-08-10 06:43:01 51°13.141 2°50.634 21.8332 0.070364 0.361575 -0.965744
2010-08-10 06:43:07 51°13.129 2°50.6 21.8365 0.070364 0.36158 -1.000568
2010-08-10 06:43:12 51°13.119 2°50.572 21.8376 0.070364 0.36158 -0.965744
2010-08-10 06:43:17 51°13.109 2°50.544 21.8404 0.070364 0.36158 -0.965744
2010-08-10 06:43:22 51°13.098 2°50.516 21.8264 0.070364 0.361591 -0.965744
2010-08-10 06:43:27 51°13.088 2°50.488 21.8277 0.070364 0.361591 -0.965744
2010-08-10 06:43:33 51°13.076 2°50.454 21.8363 0.070364 0.361596 -1.000568
2010-08-10 06:43:37 51°13.067 2°50.432 21.8409 0.070364 0.361601 -0.965744
2010-08-10 06:43:42 51°13.057 2°50.404 21.8441 0.070364 0.361585 -0.965744
2010-08-10 06:43:47 51°13.047 2°50.376 21.8435 0.070364 0.361585 -0.965744
2010-08-10 06:43:52 51°13.037 2°50.347 21.8349 0.070364 0.361596 -0.965744
2010-08-10 06:43:57 51°13.026 2°50.319 21.8446 0.070364 0.361601 -1.000568
2010-08-10 06:44:02 51°13.016 2°50.291 21.8408 0.070364 0.361601 -1.000568
2010-08-10 06:44:07 51°13.006 2°50.263 21.843 0.070364 0.361607 -0.93092
2010-08-10 06:44:12 51°12.995 2°50.235 21.8434 0.070364 0.361623 -1.000568
2010-08-10 06:44:17 51°12.985 2°50.207 21.8359 0.070364 0.361623 -1.000568
2010-08-10 06:44:22 51°12.974 2°50.179 21.8455 0.070364 0.361623 -1.000568
2010-08-10 06:44:27 51°12.964 2°50.151 21.8469 0.070364 0.361633 -0.965744
2010-08-10 06:44:32 51°12.954 2°50.123 21.8444 0.070364 0.361633 -0.965744
2010-08-10 06:44:37 51°12.943 2°50.094 21.8415 0.070364 0.361639 -0.965744
2010-08-10 06:44:41 51°12.935 2°50.072 21.8516 0.070364 0.361639 -1.000568
2010-08-10 06:44:47 51°12.922 2°50.038 21.8482 0.070364 0.361639 -1.000568
2010-08-10 06:44:52 51°12.912 2°50.01 21.8524 0.070364 0.361644 -0.965744
2010-08-10 06:44:57 51°12.901 2°49.982 21.8539 0.070364 0.361639 -0.965744
2010-08-10 06:45:02 51°12.891 2°49.953 21.8377 0.070364 0.361649 -0.965744
2010-08-10 06:45:07 51°12.881 2°49.925 21.8477 0.070364 0.361644 -1.000568
2010-08-10 06:45:12 51°12.87 2°49.897 21.8419 0.070364 0.361649 -0.965744
2010-08-10 06:45:17 51°12.859 2°49.869 21.8573 0.070364 0.361649 -0.965744
2010-08-10 06:45:21 51°12.851 2°49.846 21.8403 0.070364 0.361655 -0.965744
2010-08-10 06:45:27 51°12.838 2°49.812 21.8506 0.070364 0.361655 -1.000568
2010-08-10 06:45:32 51°12.828 2°49.784 21.8424 0.070364 0.361671 -0.965744
2010-08-10 06:45:37 51°12.817 2°49.756 21.8506 0.070364 0.361665 -0.965744
2010-08-10 06:45:42 51°12.807 2°49.728 21.845 0.070364 0.361671 -1.000568
2010-08-10 06:45:47 51°12.796 2°49.699 21.8604 0.070364 0.361671 -1.000568
2010-08-10 06:45:53 51°12.784 2°49.665 21.8461 0.070364 0.361671 -0.965744
2010-08-10 06:45:57 51°12.775 2°49.643 21.859 0.070364 0.361676 -1.000568
2010-08-10 06:46:02 51°12.765 2°49.614 21.8542 0.070364 0.361676 -1.000568
2010-08-10 06:46:07 51°12.755 2°49.586 21.851 0.070364 0.361682 -0.965744
2010-08-10 06:46:12 51°12.744 2°49.558 21.8571 0.070364 0.361687 -1.000568
2010-08-10 06:46:17 51°12.734 2°49.529 21.8602 0.070364 0.361687 -1.000568
2010-08-10 06:46:22 51°12.724 2°49.501 21.8581 0.070364 0.361682 -1.035392
2010-08-10 06:46:27 51°12.713 2°49.473 21.8595 0.070364 0.361692 -1.000568
2010-08-10 06:46:32 51°12.703 2°49.445 21.8636 0.070364 0.361698 -0.965744
2010-08-10 06:46:37 51°12.692 2°49.417 21.8623 0.070364 0.361698 -0.965744
2010-08-10 06:46:42 51°12.682 2°49.389 21.8628 0.070364 0.361708 -1.000568
2010-08-10 06:46:47 51°12.672 2°49.361 21.8546 0.070364 0.361708 -1.000568
2010-08-10 06:46:52 51°12.661 2°49.332 21.8716 0.070364 0.361708 -0.965744
2010-08-10 06:46:57 51°12.651 2°49.304 21.8648 0.070364 0.361703 -0.965744
2010-08-10 06:47:01 51°12.643 2°49.282 21.8704 0.070364 0.361714 -0.965744
2010-08-10 06:47:07 51°12.63 2°49.248 21.8672 0.070364 0.361719 -0.965744
2010-08-10 06:47:12 51°12.62 2°49.22 21.8697 0.070364 0.361719 -0.965744
2010-08-10 06:47:17 51°12.61 2°49.192 21.8578 0.070364 0.361719 -0.965744
2010-08-10 06:47:22 51°12.599 2°49.165 21.8708 0.070364 0.36173 -0.965744
2010-08-10 06:47:27 51°12.589 2°49.137 21.8595 0.070364 0.36173 -1.000568
2010-08-10 06:47:32 51°12.579 2°49.109 21.8571 0.070364 0.361735 -0.965744
2010-08-10 06:47:37 51°12.568 2°49.082 21.8642 0.070364 0.361735 -0.965744
2010-08-10 06:47:42 51°12.558 2°49.054 21.8758 0.070364 0.361735 -1.000568
2010-08-10 06:47:47 51°12.548 2°49.026 21.868 0.070364 0.361735 -1.000568
2010-08-10 06:47:52 51°12.538 2°48.998 21.8725 0.070364 0.361746 -0.965744
2010-08-10 06:47:57 51°12.527 2°48.971 21.88 0.070364 0.361746 -1.000568
2010-08-10 06:48:02 51°12.517 2°48.943 21.8678 0.070364 0.361746 -0.965744
2010-08-10 06:48:07 51°12.507 2°48.915 21.8699 0.070364 0.361751 -1.000568
2010-08-10 06:48:13 51°12.494 2°48.882 21.88 0.070364 0.361757 -0.965744
2010-08-10 06:48:17 51°12.486 2°48.86 21.8739 0.070364 0.361757 -0.965744
2010-08-10 06:48:22 51°12.476 2°48.833 21.8716 0.070364 0.361757 -0.965744
2010-08-10 06:48:27 51°12.465 2°48.805 21.8804 0.070364 0.361762 -0.965744
2010-08-10 06:48:32 51°12.455 2°48.777 21.8799 0.070364 0.361762 -0.965744
2010-08-10 06:48:37 51°12.445 2°48.75 21.8736 0.070364 0.361767 -0.965744
2010-08-10 06:48:42 51°12.434 2°48.722 21.8737 0.070364 0.361767 -1.000568
2010-08-10 06:48:47 51°12.424 2°48.694 21.8748 0.070364 0.361767 -1.000568
2010-08-10 06:48:52 51°12.414 2°48.667 21.8843 0.070364 0.361773 -0.965744
2010-08-10 06:48:57 51°12.403 2°48.639 21.8854 0.070364 0.361778 -0.965744
2010-08-10 06:49:01 51°12.395 2°48.617 21.8803 0.070364 0.361783 -1.000568
2010-08-10 06:49:07 51°12.383 2°48.584 21.8746 0.070364 0.361789 -0.965744
2010-08-10 06:49:12 51°12.373 2°48.556 21.8726 0.070364 0.361789 -0.965744
2010-08-10 06:49:17 51°12.362 2°48.528 21.8723 0.070364 0.361789 -0.965744
2010-08-10 06:49:22 51°12.352 2°48.501 21.8766 0.070364 0.361794 -1.000568
2010-08-10 06:49:27 51°12.341 2°48.473 21.8826 0.070364 0.361794 -1.000568
2010-08-10 06:49:32 51°12.331 2°48.446 21.883 0.070364 0.361794 -0.965744
2010-08-10 06:49:37 51°12.321 2°48.418 21.89 0.070364 0.361799 -1.000568
2010-08-10 06:49:41 51°12.313 2°48.396 21.8842 0.070364 0.361805 -1.000568
2010-08-10 06:49:47 51°12.301 2°48.362 21.8897 0.070364 0.361805 -1.000568
2010-08-10 06:49:52 51°12.291 2°48.334 21.8871 0.070364 0.36181 -0.965744
2010-08-10 06:49:57 51°12.28 2°48.306 21.8867 0.070364 0.361815 -0.965744
2010-08-10 06:50:02 51°12.27 2°48.279 21.8919 0.070364 0.361815 -1.000568
2010-08-10 06:50:07 51°12.26 2°48.251 21.8832 0.070364 0.361821 -0.965744
2010-08-10 06:50:12 51°12.25 2°48.223 21.8888 0.070364 0.361821 -0.965744
2010-08-10 06:50:17 51°12.24 2°48.196 21.894 0.070364 0.361821 -0.965744
2010-08-10 06:50:21 51°12.232 2°48.173 21.8848 0.070364 0.361826 -0.965744
2010-08-10 06:50:27 51°12.219 2°48.14 21.8928 0.070364 0.361826 -1.000568
2010-08-10 06:50:32 51°12.21 2°48.112 21.8904 0.070364 0.361831 -1.000568
2010-08-10 06:50:37 51°12.199 2°48.084 21.8971 0.070364 0.361837 -1.000568
2010-08-10 06:50:42 51°12.189 2°48.056 21.8883 0.070364 0.361831 -1.000568
2010-08-10 06:50:47 51°12.179 2°48.029 21.906 0.070364 0.361831 -1.000568
2010-08-10 06:50:53 51°12.167 2°47.995 21.8934 0.070364 0.361842 -0.965744
2010-08-10 06:50:57 51°12.159 2°47.973 21.894 0.070364 0.361848 -0.965744
2010-08-10 06:51:02 51°12.149 2°47.945 21.8992 0.070364 0.361848 -0.965744
2010-08-10 06:51:07 51°12.139 2°47.918 21.8916 0.070364 0.361853 -1.000568
2010-08-10 06:51:12 51°12.129 2°47.89 21.9035 0.070364 0.361858 -1.000568
2010-08-10 06:51:17 51°12.119 2°47.863 21.9023 0.070364 0.361858 -1.000568
2010-08-10 06:51:22 51°12.108 2°47.835 21.8952 0.070364 0.361858 -0.965744
2010-08-10 06:51:27 51°12.098 2°47.808 21.9037 0.070364 0.361869 -0.965744
2010-08-10 06:51:32 51°12.088 2°47.781 21.9058 0.070364 0.361864 -1.000568
2010-08-10 06:51:37 51°12.078 2°47.753 21.889 0.070364 0.361864 -1.000568
2010-08-10 06:51:42 51°12.068 2°47.726 21.9057 0.070364 0.361864 -0.965744
2010-08-10 06:51:47 51°12.057 2°47.699 21.9109 0.070364 0.361864 -0.965744
2010-08-10 06:51:52 51°12.047 2°47.671 21.9074 0.070364 0.361874 -0.965744
2010-08-10 06:51:57 51°12.037 2°47.644 21.9072 0.070364 0.36188 -0.965744
2010-08-10 06:52:02 51°12.027 2°47.617 21.9073 0.070364 0.36188 -0.965744
2010-08-10 06:52:07 51°12.017 2°47.59 21.9035 0.070364 0.361885 -0.965744
2010-08-10 06:52:12 51°12.007 2°47.562 21.9042 0.070364 0.36189 -0.965744
2010-08-10 06:52:17 51°11.997 2°47.535 21.9077 0.070364 0.36189 -0.965744
2010-08-10 06:52:22 51°11.987 2°47.508 21.9083 0.070364 0.361885 -1.000568
2010-08-10 06:52:27 51°11.977 2°47.48 21.9143 0.070364 0.36189 -1.000568
2010-08-10 06:52:33 51°11.965 2°47.448 21.9038 0.070364 0.361896 -0.965744
2010-08-10 06:52:37 51°11.957 2°47.426 21.9195 0.070364 0.361907 -1.000568
2010-08-10 06:52:42 51°11.947 2°47.398 21.9144 0.070364 0.361907 -0.965744
2010-08-10 06:52:47 51°11.937 2°47.371 21.9128 0.070364 0.361907 -0.965744
2010-08-10 06:52:52 51°11.927 2°47.344 21.9034 0.070364 0.361912 -0.965744
2010-08-10 06:52:57 51°11.917 2°47.317 21.9135 0.070364 0.361912 -1.000568
2010-08-10 06:53:02 51°11.907 2°47.29 21.918 0.070364 0.361917 -0.93092
2010-08-10 06:53:07 51°11.897 2°47.263 21.9169 0.070364 0.361923 -1.000568
2010-08-10 06:53:12 51°11.887 2°47.236 21.92 0.070364 0.361917 -0.965744
2010-08-10 06:53:17 51°11.877 2°47.209 21.917 0.070364 0.361917 -0.965744
2010-08-10 06:53:21 51°11.87 2°47.187 21.9266 0.070364 0.361928 -0.965744
2010-08-10 06:53:27 51°11.858 2°47.154 21.917 0.070364 0.361928 -1.000568
2010-08-10 06:53:32 51°11.848 2°47.127 21.925 0.07026 0.361382 -0.965744
2010-08-10 06:53:37 51°11.838 2°47.1 21.9292 0.070364 0.361939 -0.965744
2010-08-10 06:53:42 51°11.828 2°47.073 21.9229 0.070364 0.361939 -0.965744
2010-08-10 06:53:47 51°11.818 2°47.046 21.9365 0.070364 0.361939 -0.965744
2010-08-10 06:53:53 51°11.806 2°47.014 21.9246 0.070364 0.361944 -1.000568
2010-08-10 06:53:57 51°11.798 2°46.992 21.9335 0.070364 0.361955 -0.965744
2010-08-10 06:54:01 51°11.79 2°46.97 21.9296 0.070364 0.361944 -1.000568
2010-08-10 06:54:07 51°11.778 2°46.938 21.9323 0.070364 0.361949 -0.965744
2010-08-10 06:54:12 51°11.768 2°46.911 21.9265 0.070364 0.361949 -0.965744
2010-08-10 06:54:17 51°11.759 2°46.884 21.9362 0.070364 0.361949 -0.965744
2010-08-10 06:54:22 51°11.749 2°46.857 21.931 0.07026 0.361403 -0.965744
2010-08-10 06:54:27 51°11.739 2°46.829 21.929 0.070364 0.36196 -0.965744
2010-08-10 06:54:32 51°11.729 2°46.802 21.9362 0.07026 0.361414 -0.965744
2010-08-10 06:54:37 51°11.719 2°46.775 21.9322 0.07026 0.361425 -0.965744
2010-08-10 06:54:41 51°11.711 2°46.754 21.938 0.070364 0.361976 -0.965744
2010-08-10 06:54:47 51°11.699 2°46.721 21.9421 0.070364 0.361976 -0.965744
2010-08-10 06:54:52 51°11.689 2°46.694 21.9403 0.070364 0.361976 -1.000568
2010-08-10 06:54:57 51°11.68 2°46.667 21.9389 0.070364 0.361971 -0.965744
2010-08-10 06:55:02 51°11.67 2°46.64 21.9415 0.070364 0.361982 -0.965744
2010-08-10 06:55:07 51°11.66 2°46.613 21.9326 0.07026 0.361441 -0.93092
2010-08-10 06:55:12 51°11.65 2°46.586 21.9464 0.070364 0.361982 -0.965744
2010-08-10 06:55:17 51°11.64 2°46.559 21.941 0.070364 0.361982 -0.965744
2010-08-10 06:55:21 51°11.632 2°46.538 21.9424 0.070364 0.361998 -1.000568
2010-08-10 06:55:27 51°11.621 2°46.505 21.9369 0.070364 0.361992 -0.965744
2010-08-10 06:55:32 51°11.611 2°46.478 21.9528 0.070364 0.362003 -1.000568
2010-08-10 06:55:37 51°11.601 2°46.451 21.9342 0.07026 0.361451 -1.000568
2010-08-10 06:55:42 51°11.592 2°46.424 21.9536 0.07026 0.361457 -0.965744
2010-08-10 06:55:47 51°11.582 2°46.397 21.9409 0.07026 0.361457 -0.965744
2010-08-10 06:55:53 51°11.57 2°46.364 21.9521 0.07026 0.361467 -0.965744
2010-08-10 06:55:57 51°11.562 2°46.342 21.9402 0.070364 0.362014 -1.000568
2010-08-10 06:56:02 51°11.553 2°46.316 21.9547 0.07026 0.361473 -0.965744
2010-08-10 06:56:07 51°11.543 2°46.288 21.9437 0.070364 0.362014 -0.965744
2010-08-10 06:56:13 51°11.531 2°46.256 21.9499 0.07026 0.361467 -1.000568
2010-08-10 06:56:17 51°11.523 2°46.234 21.9378 0.07026 0.361467 -1.000568
2010-08-10 06:56:22 51°11.514 2°46.207 21.9519 0.07026 0.361473 -0.965744
2010-08-10 06:56:27 51°11.504 2°46.18 21.9466 0.07026 0.361478 -0.965744
2010-08-10 06:56:32 51°11.494 2°46.153 21.959 0.070364 0.362041 -0.965744
2010-08-10 06:56:37 51°11.484 2°46.126 21.9454 0.07026 0.361484 -1.000568
2010-08-10 06:56:41 51°11.476 2°46.104 21.9611 0.070364 0.362041 -0.965744
2010-08-10 06:56:47 51°11.465 2°46.072 21.9526 0.070364 0.362041 -0.965744
2010-08-10 06:56:52 51°11.455 2°46.045 21.9597 0.07026 0.361494 -0.965744
2010-08-10 06:56:57 51°11.445 2°46.018 21.9542 0.07026 0.3615 -1.000568
2010-08-10 06:57:02 51°11.435 2°45.991 21.9536 0.070364 0.362057 -1.000568
2010-08-10 06:57:07 51°11.425 2°45.965 21.9483 0.07026 0.3615 -0.965744
2010-08-10 06:57:12 51°11.415 2°45.938 21.9636 0.070364 0.362057 -0.965744
2010-08-10 06:57:17 51°11.405 2°45.911 21.9458 0.070364 0.362057 -0.965744
2010-08-10 06:57:21 51°11.397 2°45.89 21.9661 0.07026 0.36151 -0.965744
2010-08-10 06:57:27 51°11.385 2°45.857 21.9646 0.07026 0.361516 -1.000568
2010-08-10 06:57:32 51°11.375 2°45.83 21.9619 0.07026 0.361521 -0.965744
2010-08-10 06:57:37 51°11.366 2°45.803 21.9629 0.070364 0.362067 -0.965744
2010-08-10 06:57:41 51°11.358 2°45.781 21.9572 0.070364 0.362073 -1.000568
2010-08-10 06:57:47 51°11.346 2°45.749 21.9609 0.070364 0.362073 -1.000568
2010-08-10 06:57:52 51°11.337 2°45.722 21.9619 0.07026 0.361526 -0.965744
2010-08-10 06:57:57 51°11.327 2°45.695 21.9571 0.07026 0.361532 -0.965744
2010-08-10 06:58:02 51°11.317 2°45.668 21.8718 0.07026 0.361537 -1.000568
2010-08-10 06:58:07 51°11.307 2°45.64 21.8863 0.07026 0.361537 -1.000568
2010-08-10 06:58:13 51°11.296 2°45.608 21.8936 0.07026 0.361542 -0.965744
2010-08-10 06:58:17 51°11.288 2°45.586 21.896 0.07026 0.361542 -0.965744
2010-08-10 06:58:22 51°11.278 2°45.559 21.8999 0.07026 0.361542 -1.000568
2010-08-10 06:58:27 51°11.268 2°45.532 21.9037 0.07026 0.361548 -1.000568
2010-08-10 06:58:32 51°11.259 2°45.505 21.9057 0.07026 0.361548 -0.965744
2010-08-10 06:58:37 51°11.249 2°45.478 21.9102 0.07026 0.361553 -1.000568
2010-08-10 06:58:42 51°11.239 2°45.451 21.9118 0.07026 0.361559 -1.000568
2010-08-10 06:58:47 51°11.229 2°45.424 21.9966 0.07026 0.361559 -1.000568
2010-08-10 06:58:52 51°11.219 2°45.397 22.0085 0.07026 0.361559 -1.000568
2010-08-10 06:58:57 51°11.21 2°45.37 22.0008 0.07026 0.361569 -0.896096
2010-08-10 06:59:02 51°11.2 2°45.344 21.9981 0.07026 0.361569 -1.000568
2010-08-10 06:59:07 51°11.19 2°45.317 21.9924 0.07026 0.361569 -0.965744
2010-08-10 06:59:12 51°11.18 2°45.29 21.9973 0.07026 0.361575 -0.965744
2010-08-10 06:59:17 51°11.17 2°45.263 21.9874 0.07026 0.361575 -0.965744
2010-08-10 06:59:22 51°11.16 2°45.236 21.991 0.07026 0.361575 -0.965744
2010-08-10 06:59:27 51°11.151 2°45.209 21.9897 0.07026 0.361585 -1.000568
2010-08-10 06:59:33 51°11.139 2°45.176 21.9877 0.07026 0.361585 -0.93092
2010-08-10 06:59:37 51°11.131 2°45.155 21.9879 0.07026 0.361585 -0.93092
2010-08-10 06:59:42 51°11.122 2°45.128 21.9914 0.070364 0.362143 -0.965744
2010-08-10 06:59:47 51°11.112 2°45.101 21.9938 0.070364 0.362143 -0.965744
2010-08-10 06:59:52 51°11.102 2°45.074 21.9909 0.07026 0.361596 -0.93092
2010-08-10 06:59:57 51°11.093 2°45.047 21.9907 0.07026 0.361596 -0.965744
2010-08-10 07:00:02 51°11.083 2°45.02 21.9882 0.07026 0.361607 -0.965744
2010-08-10 07:00:07 51°11.073 2°44.993 21.9886 0.07026 0.361607 -0.965744
2010-08-10 07:00:12 51°11.064 2°44.965 21.9889 0.07026 0.361612 -0.965744
2010-08-10 07:00:17 51°11.054 2°44.939 21.9936 0.07026 0.361612 -0.965744
2010-08-10 07:00:21 51°11.046 2°44.917 21.9925 0.07026 0.361618 -0.965744
2010-08-10 07:00:27 51°11.034 2°44.885 21.9901 0.07026 0.361612 -0.93092
2010-08-10 07:00:32 51°11.025 2°44.857 21.9971 0.07026 0.361618 -0.965744
2010-08-10 07:00:37 51°11.015 2°44.831 21.9953 0.07026 0.361623 -0.965744
2010-08-10 07:00:42 51°11.006 2°44.804 21.9911 0.07026 0.361623 -0.965744
2010-08-10 07:00:47 51°10.996 2°44.777 21.9998 0.07026 0.361623 -0.965744
2010-08-10 07:00:52 51°10.987 2°44.75 21.9952 0.07026 0.361628 -0.965744
2010-08-10 07:00:57 51°10.977 2°44.723 21.9969 0.07026 0.361634 -0.965744
2010-08-10 07:01:02 51°10.967 2°44.696 21.9954 0.07026 0.361639 -0.965744
2010-08-10 07:01:07 51°10.958 2°44.669 21.9947 0.07026 0.361644 -0.965744
2010-08-10 07:01:12 51°10.948 2°44.642 21.994 0.07026 0.36165 -0.965744
2010-08-10 07:01:17 51°10.939 2°44.615 22.0015 0.07026 0.36165 -0.965744
2010-08-10 07:01:22 51°10.929 2°44.588 21.9971 0.07026 0.361644 -0.965744
2010-08-10 07:01:27 51°10.92 2°44.561 22 0.07026 0.36165 -0.93092
2010-08-10 07:01:32 51°10.91 2°44.534 21.9997 0.07026 0.36165 -0.965744
2010-08-10 07:01:37 51°10.901 2°44.508 22.005 0.07026 0.361655 -0.93092
2010-08-10 07:01:42 51°10.891 2°44.481 21.9989 0.07026 0.361666 -0.965744
2010-08-10 07:01:47 51°10.882 2°44.454 22.0044 0.07026 0.361666 -0.965744
2010-08-10 07:01:53 51°10.871 2°44.422 21.9972 0.07026 0.361671 -0.93092
2010-08-10 07:01:57 51°10.863 2°44.401 22.0123 0.07026 0.361677 -0.965744
2010-08-10 07:02:02 51°10.854 2°44.375 22.0132 0.07026 0.36166 -0.93092
2010-08-10 07:02:07 51°10.844 2°44.348 22.0042 0.07026 0.361671 -0.965744
2010-08-10 07:02:12 51°10.833 2°44.323 22.0067 0.07026 0.361682 -0.93092
2010-08-10 07:02:17 51°10.823 2°44.297 22.0087 0.07026 0.361682 -0.93092
2010-08-10 07:02:22 51°10.811 2°44.273 22.0074 0.07026 0.361687 -0.965744
2010-08-10 07:02:27 51°10.8 2°44.249 22.0089 0.07026 0.361698 -0.965744
2010-08-10 07:02:32 51°10.788 2°44.225 22.0129 0.07026 0.361693 -0.93092
2010-08-10 07:02:37 51°10.775 2°44.202 22.0082 0.07026 0.361698 -0.965744
2010-08-10 07:02:42 51°10.763 2°44.179 22.0087 0.07026 0.361703 -0.965744
2010-08-10 07:02:47 51°10.75 2°44.157 22.0109 0.07026 0.361703 -0.965744
2010-08-10 07:02:53 51°10.734 2°44.131 22.0126 0.07026 0.361703 -0.93092
2010-08-10 07:02:57 51°10.724 2°44.114 22.0193 0.07026 0.361709 -0.965744
2010-08-10 07:03:02 51°10.71 2°44.093 22.0003 0.07026 0.361698 -0.965744
2010-08-10 07:03:07 51°10.697 2°44.071 22.0061 0.07026 0.361703 -0.965744
2010-08-10 07:03:12 51°10.684 2°44.051 22.0118 0.07026 0.361714 -0.965744
2010-08-10 07:03:17 51°10.67 2°44.03 22.0169 0.07026 0.361714 -0.965744
2010-08-10 07:03:22 51°10.657 2°44.009 22.0134 0.07026 0.361714 -1.000568
2010-08-10 07:03:27 51°10.644 2°43.988 22.0079 0.07026 0.361709 -0.965744
2010-08-10 07:03:32 51°10.631 2°43.966 22.0112 0.07026 0.361725 -0.93092
2010-08-10 07:03:37 51°10.618 2°43.945 22.0135 0.07026 0.361714 -0.965744
2010-08-10 07:03:42 51°10.605 2°43.923 22.0179 0.07026 0.361725 -1.000568
2010-08-10 07:03:47 51°10.593 2°43.901 22.001 0.07026 0.361725 -1.000568
2010-08-10 07:03:53 51°10.577 2°43.875 22.0142 0.07026 0.361725 -0.965744
2010-08-10 07:03:57 51°10.568 2°43.857 22.017 0.07026 0.361725 -0.93092
2010-08-10 07:04:01 51°10.558 2°43.839 22.0154 0.07026 0.36173 -0.965744
2010-08-10 07:04:07 51°10.544 2°43.812 22.0192 0.07026 0.36173 -0.965744
2010-08-10 07:04:12 51°10.532 2°43.789 22.0187 0.07026 0.361736 -0.965744
2010-08-10 07:04:17 51°10.52 2°43.766 22.0226 0.07026 0.361736 -0.965744
2010-08-10 07:04:22 51°10.509 2°43.742 22.0261 0.07026 0.361741 -0.93092
2010-08-10 07:04:27 51°10.497 2°43.719 22.0231 0.07026 0.361762 -1.000568
2010-08-10 07:04:32 51°10.486 2°43.695 22.0242 0.07026 0.361752 -0.93092
2010-08-10 07:04:37 51°10.474 2°43.672 22.0194 0.07026 0.361757 -1.000568
2010-08-10 07:04:41 51°10.465 2°43.653 22.0245 0.07026 0.361768 -0.965744
2010-08-10 07:04:47 51°10.451 2°43.626 22.0261 0.07026 0.361768 -0.965744
2010-08-10 07:04:52 51°10.439 2°43.603 22.0259 0.07026 0.361762 -1.000568
2010-08-10 07:04:57 51°10.426 2°43.58 22.0228 0.07026 0.361773 -0.965744
2010-08-10 07:05:01 51°10.416 2°43.561 22.0234 0.07026 0.361773 -0.965744
2010-08-10 07:05:07 51°10.402 2°43.533 22.0333 0.07026 0.361773 -1.000568
2010-08-10 07:05:13 51°10.387 2°43.506 22.0306 0.07026 0.361778 -0.965744
2010-08-10 07:05:17 51°10.377 2°43.488 22.0243 0.07026 0.361778 -0.965744
2010-08-10 07:05:21 51°10.368 2°43.469 22.0302 0.07026 0.361778 -0.93092
2010-08-10 07:05:27 51°10.354 2°43.441 22.0311 0.07026 0.361789 -0.965744
2010-08-10 07:05:32 51°10.341 2°43.418 22.0344 0.07026 0.361789 -1.000568
2010-08-10 07:05:37 51°10.329 2°43.395 22.0309 0.07026 0.361789 -0.965744
2010-08-10 07:05:42 51°10.317 2°43.371 22.0354 0.07026 0.361795 -0.965744
2010-08-10 07:05:47 51°10.305 2°43.348 22.0221 0.07026 0.361795 -0.965744
2010-08-10 07:05:52 51°10.294 2°43.325 22.0412 0.07026 0.3618 -0.93092
2010-08-10 07:05:57 51°10.282 2°43.302 22.05 0.07026 0.3618 -0.965744
2010-08-10 07:06:02 51°10.271 2°43.28 22.0463 0.07026 0.361811 -0.965744
2010-08-10 07:06:07 51°10.26 2°43.258 22.0544 0.07026 0.361821 -0.965744
2010-08-10 07:06:12 51°10.249 2°43.236 22.0448 0.07026 0.361821 -0.965744
2010-08-10 07:06:17 51°10.238 2°43.216 22.0465 0.07026 0.361821 -0.965744
2010-08-10 07:06:22 51°10.228 2°43.196 22.0426 0.07026 0.361827 -0.965744
2010-08-10 07:06:27 51°10.217 2°43.178 22.0533 0.07026 0.361832 -0.93092
2010-08-10 07:06:32 51°10.207 2°43.162 22.061 0.07026 0.361827 -0.965744
2010-08-10 07:06:37 51°10.197 2°43.146 22.0409 0.07026 0.361838 -0.93092
2010-08-10 07:06:42 51°10.188 2°43.131 22.05 0.07026 0.361843 -0.93092
2010-08-10 07:06:47 51°10.179 2°43.117 22.0566 0.07026 0.361843 -0.93092
2010-08-10 07:06:52 51°10.17 2°43.103 22.0571 0.07026 0.361854 -0.965744
2010-08-10 07:06:57 51°10.162 2°43.09 22.0537 0.07026 0.361848 -0.93092
2010-08-10 07:07:02 51°10.154 2°43.078 22.0426 0.07026 0.361859 -0.93092
2010-08-10 07:07:07 51°10.147 2°43.065 22.0443 0.07026 0.361854 -0.965744
2010-08-10 07:07:13 51°10.14 2°43.05 22.0415 0.07026 0.361854 -0.965744
2010-08-10 07:07:17 51°10.135 2°43.04 22.0529 0.07026 0.361854 -0.965744
2010-08-10 07:07:21 51°10.132 2°43.03 22.0526 0.07026 0.361859 -0.93092
2010-08-10 07:07:27 51°10.128 2°43.015 22.0508 0.07026 0.361859 -1.000568
2010-08-10 07:07:32 51°10.125 2°43.002 22.0572 0.07026 0.36187 -0.93092
2010-08-10 07:07:37 51°10.123 2°42.99 22.0616 0.07026 0.361886 -0.93092
2010-08-10 07:07:41 51°10.122 2°42.981 22.0677 0.07026 0.361891 -1.000568
2010-08-10 07:07:47 51°10.12 2°42.968 22.0613 0.07026 0.361891 -1.000568
2010-08-10 07:07:52 51°10.12 2°42.957 22.0704 0.07026 0.361902 -0.965744
2010-08-10 07:07:57 51°10.119 2°42.947 22.069 0.07026 0.361907 -0.93092
2010-08-10 07:08:02 51°10.118 2°42.938 22.0698 0.07026 0.361918 -0.93092
2010-08-10 07:08:07 51°10.118 2°42.928 22.0734 0.07026 0.361918 -0.93092
2010-08-10 07:08:13 51°10.118 2°42.917 22.0706 0.07026 0.361918 -0.93092
2010-08-10 07:08:17 51°10.117 2°42.911 22.0658 0.07026 0.361918 -0.93092
2010-08-10 07:08:22 51°10.117 2°42.902 22.0632 0.07026 0.361923 -0.93092
2010-08-10 07:08:27 51°10.117 2°42.895 22.0744 0.07026 0.361923 -0.93092
2010-08-10 07:08:32 51°10.117 2°42.888 22.0687 0.07026 0.361923 -0.965744
2010-08-10 07:08:37 51°10.117 2°42.881 22.0727 0.07026 0.361923 -0.93092
2010-08-10 07:08:42 51°10.118 2°42.875 22.0758 0.07026 0.361923 -0.965744
2010-08-10 07:08:47 51°10.118 2°42.87 22.0764 0.07026 0.361923 -0.965744
2010-08-10 07:08:52 51°10.119 2°42.864 22.0761 0.07026 0.361923 -0.965744
2010-08-10 07:08:57 51°10.119 2°42.86 22.0762 0.07026 0.361929 -0.93092
2010-08-10 07:09:01 51°10.119 2°42.857 22.077 0.07026 0.361934 -1.000568
2010-08-10 07:09:07 51°10.119 2°42.852 22.0786 0.07026 0.36194 -0.965744
2010-08-10 07:09:12 51°10.12 2°42.849 22.0826 0.07026 0.361945 -0.93092
2010-08-10 07:09:17 51°10.12 2°42.846 22.0753 0.07026 0.361945 -0.93092
2010-08-10 07:09:22 51°10.12 2°42.843 22.08 0.07026 0.361945 -0.93092
2010-08-10 07:09:27 51°10.12 2°42.84 22.0789 0.07026 0.36194 -0.93092
2010-08-10 07:09:32 51°10.12 2°42.838 22.0735 0.07026 0.361945 -0.965744
2010-08-10 07:09:37 51°10.119 2°42.837 22.0769 0.07026 0.361945 -1.000568
2010-08-10 07:09:41 51°10.119 2°42.835 22.0782 0.07026 0.361961 -0.93092
2010-08-10 07:09:47 51°10.119 2°42.834 22.0832 0.07026 0.361961 -0.93092
2010-08-10 07:09:52 51°10.118 2°42.832 22.0781 0.07026 0.361961 -0.93092
2010-08-10 07:09:57 51°10.118 2°42.831 22.0783 0.07026 0.361966 -0.93092
2010-08-10 07:10:02 51°10.118 2°42.829 22.0841 0.07026 0.361966 -0.965744
2010-08-10 07:10:07 51°10.117 2°42.828 22.0894 0.07026 0.361972 -0.93092
2010-08-10 07:10:12 51°10.117 2°42.826 22.0856 0.07026 0.361977 -0.965744
2010-08-10 07:10:17 51°10.117 2°42.825 22.0822 0.07026 0.361977 -0.965744
2010-08-10 07:10:21 51°10.117 2°42.824 22.0842 0.07026 0.361972 -0.965744
2010-08-10 07:10:27 51°10.116 2°42.822 22.0699 0.07026 0.361977 -0.93092
2010-08-10 07:10:32 51°10.116 2°42.821 22.0288 0.07026 0.361977 -0.965744
2010-08-10 07:10:37 51°10.116 2°42.819 22.0365 0.07026 0.361977 -0.965744
2010-08-10 07:10:42 51°10.116 2°42.818 22.0398 0.07026 0.361988 -0.93092
2010-08-10 07:10:47 51°10.116 2°42.817 22.0446 0.07026 0.361988 -0.93092
2010-08-10 07:10:53 51°10.115 2°42.815 22.0465 0.07026 0.361993 -0.965744
2010-08-10 07:10:57 51°10.115 2°42.814 22.0488 0.07026 0.361993 -1.000568
2010-08-10 07:11:02 51°10.115 2°42.812 22.0508 0.07026 0.361999 -0.965744
2010-08-10 07:11:07 51°10.115 2°42.81 22.0529 0.07026 0.361999 -0.965744
2010-08-10 07:11:12 51°10.115 2°42.809 22.0547 0.07026 0.362009 -0.965744
2010-08-10 07:11:17 51°10.114 2°42.808 22.0567 0.07026 0.362009 -0.965744
2010-08-10 07:11:22 51°10.114 2°42.806 22.0602 0.07026 0.362015 -0.93092
2010-08-10 07:11:27 51°10.114 2°42.805 22.0605 0.07026 0.36202 -0.93092
2010-08-10 07:11:32 51°10.114 2°42.803 22.0626 0.07026 0.36202 -1.000568
2010-08-10 07:11:37 51°10.114 2°42.802 22.0656 0.07026 0.362026 -0.93092
2010-08-10 07:11:42 51°10.114 2°42.801 22.0654 0.07026 0.362031 -0.965744
2010-08-10 07:11:47 51°10.114 2°42.799 22.067 0.07026 0.362031 -0.965744
2010-08-10 07:11:53 51°10.114 2°42.798 22.0697 0.070156 0.361484 -1.000568
2010-08-10 07:11:57 51°10.114 2°42.797 22.0716 0.07026 0.362042 -0.93092
2010-08-10 07:12:01 51°10.114 2°42.796 22.0729 0.07026 0.362047 -1.000568
2010-08-10 07:12:07 51°10.114 2°42.794 22.0757 0.07026 0.362047 -0.93092
2010-08-10 07:12:12 51°10.114 2°42.793 22.0777 0.07026 0.362052 -0.93092
2010-08-10 07:12:17 51°10.114 2°42.791 22.0779 0.07026 0.362052 -0.93092
2010-08-10 07:12:23 51°10.114 2°42.789 22.0787 0.07026 0.362052 -0.93092
2010-08-10 07:12:28 51°10.114 2°42.788 22.0816 0.07026 0.362052 -0.965744
2010-08-10 07:12:33 51°10.114 2°42.786 22.0819 0.07026 0.362063 -0.965744
2010-08-10 07:12:37 51°10.114 2°42.785 22.0833 0.070156 0.361516 -0.965744
2010-08-10 07:12:43 51°10.114 2°42.783 22.0878 0.070156 0.361516 -0.93092
2010-08-10 07:12:48 51°10.114 2°42.782 22.0884 0.070156 0.361516 -0.93092
2010-08-10 07:12:53 51°10.114 2°42.781 22.0892 0.07026 0.362079 -0.965744
2010-08-10 07:12:57 51°10.114 2°42.779 22.0911 0.070156 0.361527 -1.000568
2010-08-10 07:13:02 51°10.115 2°42.778 22.0936 0.07026 0.362085 -0.965744
2010-08-10 07:13:07 51°10.115 2°42.776 22.0955 0.070156 0.361532 -0.965744
2010-08-10 07:13:12 51°10.114 2°42.775 22.0954 0.070156 0.361537 -0.965744
2010-08-10 07:13:17 51°10.114 2°42.773 22.1002 0.070156 0.361537 -0.965744
2010-08-10 07:13:22 51°10.114 2°42.772 22.1005 0.070156 0.361537 -0.965744
2010-08-10 07:13:27 51°10.114 2°42.77 22.1023 0.07026 0.362095 -0.965744
2010-08-10 07:13:33 51°10.114 2°42.768 22.1031 0.07026 0.362095 -0.965744
2010-08-10 07:13:37 51°10.114 2°42.767 22.1039 0.07026 0.362101 -0.965744
2010-08-10 07:13:42 51°10.114 2°42.765 22.1073 0.070156 0.361559 -0.965744
2010-08-10 07:13:47 51°10.114 2°42.764 22.1071 0.070156 0.361559 -0.965744
2010-08-10 07:13:53 51°10.114 2°42.762 22.1097 0.070156 0.361559 -0.965744
2010-08-10 07:13:57 51°10.114 2°42.761 22.1097 0.070156 0.361559 -0.93092
2010-08-10 07:14:02 51°10.114 2°42.759 22.1127 0.070156 0.361564 -1.000568
2010-08-10 07:14:07 51°10.114 2°42.757 22.1138 0.07026 0.362117 -0.93092
2010-08-10 07:14:13 51°10.114 2°42.755 22.1169 0.070156 0.361575 -0.965744
2010-08-10 07:14:17 51°10.114 2°42.754 22.1198 0.070156 0.361575 -0.965744
2010-08-10 07:14:23 51°10.114 2°42.752 22.1207 0.070156 0.361575 -0.93092
2010-08-10 07:14:28 51°10.114 2°42.75 22.1256 0.070156 0.361586 -0.965744
2010-08-10 07:14:33 51°10.114 2°42.749 22.1257 0.070156 0.361586 -1.000568
2010-08-10 07:14:37 51°10.114 2°42.747 22.1275 0.070156 0.361586 -0.93092
2010-08-10 07:14:42 51°10.114 2°42.746 22.1277 0.070156 0.361586 -0.965744
2010-08-10 07:14:47 51°10.113 2°42.744 22.1271 0.070156 0.361586 -0.965744
2010-08-10 07:14:52 51°10.113 2°42.742 22.1293 0.070156 0.361591 -0.965744
2010-08-10 07:14:57 51°10.113 2°42.741 22.1321 0.070156 0.361597 -0.93092
2010-08-10 07:15:03 51°10.113 2°42.739 22.1327 0.070156 0.361602 -0.965744
2010-08-10 07:15:08 51°10.113 2°42.737 22.1368 0.070156 0.361607 -0.965744
2010-08-10 07:15:13 51°10.113 2°42.735 22.1375 0.070156 0.361607 -0.965744
2010-08-10 07:15:17 51°10.113 2°42.734 22.1415 0.070156 0.361607 -0.965744
2010-08-10 07:15:23 51°10.113 2°42.732 22.1402 0.070156 0.361607 -0.93092
2010-08-10 07:15:28 51°10.112 2°42.731 22.143 0.070156 0.361613 -0.965744
2010-08-10 07:15:33 51°10.112 2°42.729 22.1452 0.070156 0.361618 -1.000568
2010-08-10 07:15:37 51°10.112 2°42.728 22.1477 0.070156 0.361623 -0.93092
2010-08-10 07:15:42 51°10.112 2°42.726 22.1484 0.070156 0.361618 -0.965744
2010-08-10 07:15:47 51°10.112 2°42.725 22.1533 0.070156 0.361618 -0.965744
2010-08-10 07:15:52 51°10.112 2°42.723 22.1538 0.070156 0.361623 -0.93092
2010-08-10 07:15:57 51°10.111 2°42.721 22.1522 0.070156 0.361634 -0.93092
2010-08-10 07:16:02 51°10.111 2°42.72 22.1596 0.070156 0.361634 -0.93092
2010-08-10 07:16:07 51°10.111 2°42.718 22.159 0.070156 0.361634 -0.93092
2010-08-10 07:16:12 51°10.111 2°42.717 22.1589 0.070156 0.36164 -0.965744
2010-08-10 07:16:17 51°10.111 2°42.715 22.1619 0.070156 0.36164 -0.965744
2010-08-10 07:16:22 51°10.111 2°42.713 22.1635 0.070156 0.361634 -0.93092
2010-08-10 07:16:27 51°10.11 2°42.712 22.1705 0.070156 0.361645 -1.000568
2010-08-10 07:16:32 51°10.11 2°42.71 22.1723 0.070156 0.361645 -0.965744
2010-08-10 07:16:37 51°10.11 2°42.709 22.1729 0.070156 0.36165 -0.965744
2010-08-10 07:16:42 51°10.11 2°42.707 22.1711 0.070156 0.361656 -0.965744
2010-08-10 07:16:47 51°10.11 2°42.706 22.172 0.070156 0.361656 -0.965744
2010-08-10 07:16:52 51°10.11 2°42.704 22.1755 0.070156 0.361661 -0.965744
2010-08-10 07:16:57 51°10.109 2°42.702 22.1786 0.070156 0.361661 -0.965744
2010-08-10 07:17:01 51°10.109 2°42.701 22.1839 0.070156 0.361666 -0.965744
2010-08-10 07:17:07 51°10.109 2°42.699 22.1855 0.070156 0.361666 -0.965744
2010-08-10 07:17:12 51°10.109 2°42.698 22.1806 0.070156 0.361672 -0.965744
2010-08-10 07:17:17 51°10.109 2°42.696 22.1862 0.070156 0.361672 -0.965744
2010-08-10 07:17:22 51°10.109 2°42.695 22.1877 0.070156 0.361672 -0.965744
2010-08-10 07:17:27 51°10.108 2°42.693 22.1918 0.070156 0.361677 -0.965744
2010-08-10 07:17:32 51°10.108 2°42.692 22.1902 0.070156 0.361683 -0.965744
2010-08-10 07:17:37 51°10.108 2°42.69 22.1926 0.070156 0.361677 -0.965744
2010-08-10 07:17:41 51°10.108 2°42.689 22.1949 0.070156 0.361688 -0.93092
2010-08-10 07:17:47 51°10.108 2°42.687 22.1984 0.070156 0.361688 -0.93092
2010-08-10 07:17:52 51°10.108 2°42.686 22.2004 0.070156 0.361688 -0.965744
2010-08-10 07:17:57 51°10.107 2°42.684 22.2029 0.070156 0.361693 -0.965744
2010-08-10 07:18:02 51°10.107 2°42.683 22.2031 0.070156 0.361699 -0.965744
2010-08-10 07:18:07 51°10.107 2°42.681 22.2101 0.070156 0.361704 -0.93092
2010-08-10 07:18:12 51°10.107 2°42.68 22.2088 0.070156 0.361709 -1.000568
2010-08-10 07:18:17 51°10.107 2°42.678 22.2127 0.070156 0.361709 -1.000568
2010-08-10 07:18:21 51°10.107 2°42.677 22.217 0.070156 0.361709 -0.93092
2010-08-10 07:18:27 51°10.107 2°42.675 22.2198 0.070156 0.361715 -0.965744
2010-08-10 07:18:32 51°10.107 2°42.674 22.2158 0.070156 0.361715 -0.965744
2010-08-10 07:18:37 51°10.107 2°42.673 22.217 0.070156 0.36172 -0.965744
2010-08-10 07:18:41 51°10.107 2°42.672 22.2241 0.070156 0.361726 -0.93092
2010-08-10 07:18:47 51°10.107 2°42.67 22.2247 0.070156 0.361726 -0.93092
2010-08-10 07:18:52 51°10.107 2°42.669 22.2284 0.070156 0.361726 -1.000568
2010-08-10 07:18:57 51°10.107 2°42.667 22.2315 0.070156 0.361731 -0.965744
2010-08-10 07:19:02 51°10.106 2°42.666 22.2351 0.070156 0.361731 -0.93092
2010-08-10 07:19:07 51°10.107 2°42.664 22.2353 0.070156 0.361736 -1.000568
2010-08-10 07:19:13 51°10.107 2°42.661 22.235 0.070156 0.361742 -0.965744
2010-08-10 07:19:17 51°10.107 2°42.659 22.2378 0.070156 0.361742 -0.965744
2010-08-10 07:19:22 51°10.107 2°42.655 22.2406 0.070156 0.361747 -0.965744
2010-08-10 07:19:27 51°10.108 2°42.651 22.2409 0.070156 0.361747 -0.965744
2010-08-10 07:19:33 51°10.109 2°42.646 22.2421 0.070156 0.361752 -0.965744
2010-08-10 07:19:37 51°10.109 2°42.642 22.2394 0.070156 0.361758 -0.93092
2010-08-10 07:19:42 51°10.11 2°42.636 22.2283 0.070156 0.361758 -0.93092
2010-08-10 07:19:47 51°10.112 2°42.63 22.2339 0.070156 0.361758 -0.93092
2010-08-10 07:19:53 51°10.115 2°42.623 22.2403 0.070156 0.361763 -1.000568
2010-08-10 07:19:57 51°10.117 2°42.618 22.252 0.070156 0.361774 -1.000568
2010-08-10 07:20:01 51°10.119 2°42.613 22.2547 0.070156 0.361785 -0.93092
2010-08-10 07:20:07 51°10.123 2°42.605 22.2601 0.070156 0.36179 -0.965744
2010-08-10 07:20:12 51°10.128 2°42.598 22.2584 0.070156 0.361801 -1.000568
2010-08-10 07:20:17 51°10.132 2°42.591 22.2627 0.070156 0.361801 -1.000568
2010-08-10 07:20:22 51°10.138 2°42.585 22.2631 0.070156 0.361801 -1.000568
2010-08-10 07:20:27 51°10.143 2°42.577 22.2677 0.070156 0.361817 -0.965744
2010-08-10 07:20:33 51°10.151 2°42.568 22.2682 0.070156 0.361817 -0.93092
2010-08-10 07:20:37 51°10.156 2°42.562 22.2687 0.070156 0.361812 -0.93092
2010-08-10 07:20:42 51°10.164 2°42.554 22.2693 0.070156 0.361817 -0.965744
2010-08-10 07:20:47 51°10.171 2°42.546 22.2701 0.070156 0.361817 -0.965744
2010-08-10 07:20:52 51°10.179 2°42.537 22.2758 0.070156 0.361817 -0.93092
2010-08-10 07:20:57 51°10.187 2°42.529 22.273 0.070156 0.361822 -0.93092
2010-08-10 07:21:02 51°10.196 2°42.521 22.2725 0.070156 0.361822 -0.965744
2010-08-10 07:21:07 51°10.205 2°42.513 22.2803 0.070156 0.361828 -0.965744
2010-08-10 07:21:12 51°10.215 2°42.504 22.2768 0.070156 0.361828 -0.965744
2010-08-10 07:21:17 51°10.224 2°42.496 22.2815 0.070156 0.361828 -0.965744
2010-08-10 07:21:22 51°10.235 2°42.488 22.2816 0.070156 0.361838 -0.965744
2010-08-10 07:21:27 51°10.245 2°42.48 22.2842 0.070156 0.361838 -0.965744
2010-08-10 07:21:32 51°10.256 2°42.472 22.2878 0.070156 0.361838 -0.93092
2010-08-10 07:21:37 51°10.267 2°42.465 22.2907 0.070156 0.361838 -0.965744
2010-08-10 07:21:42 51°10.278 2°42.458 22.2947 0.070156 0.361838 -0.93092
2010-08-10 07:21:47 51°10.289 2°42.452 22.2932 0.070156 0.361838 -0.93092
2010-08-10 07:21:53 51°10.303 2°42.444 22.2947 0.070156 0.361849 -0.93092
2010-08-10 07:21:57 51°10.312 2°42.44 22.2992 0.070156 0.361849 -1.000568
2010-08-10 07:22:02 51°10.324 2°42.435 22.3012 0.070156 0.361855 -0.965744
2010-08-10 07:22:07 51°10.336 2°42.43 22.3044 0.070156 0.361871 -1.000568
2010-08-10 07:22:12 51°10.348 2°42.426 22.3047 0.070156 0.361876 -0.965744
2010-08-10 07:22:17 51°10.36 2°42.422 22.3141 0.070156 0.361876 -0.965744
2010-08-10 07:22:22 51°10.372 2°42.419 22.3175 0.070156 0.361882 -0.965744
2010-08-10 07:22:27 51°10.384 2°42.415 22.3209 0.070156 0.361887 -0.93092
2010-08-10 07:22:32 51°10.396 2°42.411 22.3252 0.070156 0.361892 -0.965744
2010-08-10 07:22:37 51°10.408 2°42.407 22.3259 0.070156 0.361903 -0.965744
2010-08-10 07:22:42 51°10.42 2°42.403 22.3306 0.070156 0.361903 -1.000568
2010-08-10 07:22:47 51°10.432 2°42.397 22.3317 0.070156 0.361903 -1.000568
2010-08-10 07:22:53 51°10.446 2°42.39 22.3323 0.070156 0.361908 -0.965744
2010-08-10 07:22:57 51°10.456 2°42.385 22.3236 0.070156 0.361914 -0.965744
2010-08-10 07:23:02 51°10.468 2°42.378 22.3329 0.070156 0.361919 -0.965744
2010-08-10 07:23:07 51°10.48 2°42.371 22.3221 0.070156 0.361919 -0.93092
2010-08-10 07:23:12 51°10.492 2°42.364 22.3264 0.070156 0.361925 -0.965744
2010-08-10 07:23:17 51°10.504 2°42.358 22.3317 0.070156 0.361925 -0.965744
2010-08-10 07:23:22 51°10.516 2°42.352 22.3362 0.070156 0.361925 -0.965744
2010-08-10 07:23:27 51°10.528 2°42.347 22.3459 0.070156 0.361919 -0.965744
2010-08-10 07:23:32 51°10.54 2°42.343 22.3459 0.070156 0.36193 -0.965744
2010-08-10 07:23:37 51°10.553 2°42.338 22.3504 0.070156 0.361941 -0.93092
2010-08-10 07:23:42 51°10.565 2°42.333 22.3499 0.070156 0.361946 -0.965744
2010-08-10 07:23:47 51°10.577 2°42.329 22.3573 0.070156 0.361946 -0.965744
2010-08-10 07:23:53 51°10.592 2°42.323 22.3578 0.070156 0.361952 -0.965744
2010-08-10 07:23:57 51°10.602 2°42.319 22.359 0.070156 0.361957 -0.965744
2010-08-10 07:24:01 51°10.611 2°42.315 22.3624 0.070156 0.361962 -1.000568
2010-08-10 07:24:07 51°10.626 2°42.309 22.3628 0.070156 0.361962 -0.965744
2010-08-10 07:24:12 51°10.638 2°42.304 22.3664 0.070156 0.361968 -0.965744
2010-08-10 07:24:17 51°10.65 2°42.298 22.3692 0.070156 0.361968 -0.965744
2010-08-10 07:24:22 51°10.663 2°42.293 22.37 0.070156 0.361973 -0.965744
2010-08-10 07:24:27 51°10.675 2°42.287 22.3765 0.070156 0.361978 -0.965744
2010-08-10 07:24:32 51°10.687 2°42.281 22.3733 0.070156 0.361984 -0.965744
2010-08-10 07:24:37 51°10.699 2°42.274 22.3743 0.070156 0.361984 -0.965744
2010-08-10 07:24:41 51°10.709 2°42.27 22.3726 0.070156 0.361989 -0.93092
2010-08-10 07:24:47 51°10.724 2°42.263 22.3784 0.070156 0.361989 -0.93092
2010-08-10 07:24:52 51°10.736 2°42.259 22.3752 0.070156 0.361995 -0.93092
2010-08-10 07:24:57 51°10.748 2°42.254 22.3869 0.070156 0.361989 -0.965744
2010-08-10 07:25:02 51°10.761 2°42.251 22.3871 0.070156 0.361995 -0.93092
2010-08-10 07:25:07 51°10.773 2°42.248 22.3958 0.070156 0.361995 -0.965744
2010-08-10 07:25:12 51°10.785 2°42.245 22.3973 0.070156 0.362 -0.965744
2010-08-10 07:25:17 51°10.798 2°42.243 22.3968 0.070156 0.362 -0.965744
2010-08-10 07:25:21 51°10.807 2°42.24 22.3992 0.070156 0.362005 -1.000568
2010-08-10 07:25:27 51°10.822 2°42.238 22.4062 0.070156 0.362011 -0.965744
2010-08-10 07:25:32 51°10.834 2°42.235 22.4076 0.070156 0.362016 -0.965744
2010-08-10 07:25:37 51°10.847 2°42.233 22.4106 0.070156 0.362027 -0.965744
2010-08-10 07:25:42 51°10.859 2°42.231 22.4136 0.070156 0.362022 -1.000568
2010-08-10 07:25:47 51°10.871 2°42.228 22.4149 0.070156 0.362022 -1.000568
2010-08-10 07:25:53 51°10.886 2°42.224 22.4121 0.070156 0.362027 -0.93092
2010-08-10 07:25:57 51°10.896 2°42.222 22.4212 0.070156 0.362038 -0.965744
2010-08-10 07:26:02 51°10.908 2°42.218 22.4228 0.070156 0.362038 -0.965744
2010-08-10 07:26:07 51°10.92 2°42.215 22.425 0.070156 0.362043 -0.965744
2010-08-10 07:26:12 51°10.933 2°42.211 22.4274 0.070156 0.362048 -0.965744
2010-08-10 07:26:17 51°10.945 2°42.207 22.4314 0.070156 0.362048 -0.965744
2010-08-10 07:26:22 51°10.957 2°42.203 22.434 0.070156 0.362048 -0.965744
2010-08-10 07:26:27 51°10.97 2°42.199 22.4377 0.070156 0.362048 -0.965744
2010-08-10 07:26:32 51°10.982 2°42.194 22.4335 0.070156 0.362043 -0.965744
2010-08-10 07:26:37 51°10.994 2°42.19 22.4419 0.070156 0.362043 -0.965744
2010-08-10 07:26:41 51°11.004 2°42.186 22.4366 0.070156 0.362048 -0.965744
2010-08-10 07:26:47 51°11.019 2°42.181 22.4377 0.070156 0.362048 -0.965744
2010-08-10 07:26:52 51°11.031 2°42.176 22.4456 0.070156 0.362054 -0.965744
2010-08-10 07:26:57 51°11.044 2°42.171 22.4444 0.070156 0.362048 -0.965744
2010-08-10 07:27:02 51°11.056 2°42.167 22.45 0.070156 0.362065 -0.965744
2010-08-10 07:27:07 51°11.069 2°42.162 22.4533 0.070156 0.362065 -0.93092
2010-08-10 07:27:12 51°11.081 2°42.157 22.4577 0.070156 0.362065 -0.965744
2010-08-10 07:27:17 51°11.093 2°42.152 22.4605 0.070156 0.362065 -0.965744
2010-08-10 07:27:21 51°11.103 2°42.148 22.4608 0.070156 0.362075 -0.965744
2010-08-10 07:27:27 51°11.118 2°42.142 22.4617 0.070156 0.362086 -0.965744
2010-08-10 07:27:32 51°11.13 2°42.137 22.4688 0.070156 0.362086 -0.965744
2010-08-10 07:27:37 51°11.142 2°42.131 22.4693 0.070156 0.362092 -0.965744
2010-08-10 07:27:42 51°11.155 2°42.126 22.4801 0.070156 0.362092 -0.965744
2010-08-10 07:27:47 51°11.166 2°42.119 22.4862 0.070156 0.362092 -0.965744
2010-08-10 07:27:52 51°11.178 2°42.112 22.4901 0.070156 0.362086 -0.965744
2010-08-10 07:27:57 51°11.187 2°42.102 22.4886 0.070156 0.362102 -0.965744
2010-08-10 07:28:02 51°11.195 2°42.091 22.4935 0.070156 0.362129 -0.965744
2010-08-10 07:28:07 51°11.201 2°42.08 22.4938 0.070156 0.36214 -0.93092
2010-08-10 07:28:12 51°11.207 2°42.068 22.4996 0.070156 0.36214 -0.965744
2010-08-10 07:28:17 51°11.211 2°42.056 22.4989 0.070156 0.36214 -0.965744
2010-08-10 07:28:22 51°11.214 2°42.043 22.505 0.070156 0.362135 -0.965744
2010-08-10 07:28:27 51°11.217 2°42.031 22.5069 0.070156 0.362129 -0.965744
2010-08-10 07:28:33 51°11.219 2°42.017 22.5095 0.070156 0.362124 -0.965744
2010-08-10 07:28:37 51°11.22 2°42.007 22.5113 0.070156 0.362124 -0.965744
2010-08-10 07:28:42 51°11.22 2°41.995 22.5124 0.070156 0.362124 -0.93092
2010-08-10 07:28:47 51°11.22 2°41.984 22.5141 0.070156 0.362124 -0.93092
2010-08-10 07:28:52 51°11.219 2°41.973 22.5205 0.070156 0.362135 -0.965744
2010-08-10 07:28:57 51°11.218 2°41.962 22.5235 0.070156 0.362135 -0.965744
2010-08-10 07:29:02 51°11.216 2°41.952 22.5216 0.070156 0.36214 -0.965744
2010-08-10 07:29:07 51°11.214 2°41.942 22.5243 0.070156 0.362135 -0.965744
2010-08-10 07:29:13 51°11.211 2°41.931 22.5232 0.070156 0.362135 -1.000568
2010-08-10 07:29:17 51°11.209 2°41.924 22.5248 0.070156 0.362135 -1.000568
2010-08-10 07:29:22 51°11.206 2°41.916 22.5326 0.070052 0.361581 -0.93092
2010-08-10 07:29:27 51°11.202 2°41.908 22.5321 0.070156 0.362135 -0.93092
2010-08-10 07:29:33 51°11.198 2°41.9 22.5384 0.070156 0.362129 -0.965744
2010-08-10 07:29:37 51°11.195 2°41.895 22.5435 0.070156 0.36214 -0.965744
2010-08-10 07:29:42 51°11.192 2°41.889 22.5409 0.070156 0.36214 -1.000568
2010-08-10 07:29:47 51°11.188 2°41.883 22.5411 0.070156 0.36214 -1.000568
2010-08-10 07:29:52 51°11.184 2°41.878 22.5443 0.070052 0.361587 -0.93092
2010-08-10 07:29:57 51°11.18 2°41.873 22.5568 0.070156 0.362145 -0.965744
2010-08-10 07:30:02 51°11.176 2°41.868 22.5592 0.070156 0.362135 -1.000568
2010-08-10 07:30:07 51°11.171 2°41.865 22.5634 0.070052 0.361587 -0.965744
2010-08-10 07:30:12 51°11.167 2°41.861 22.5625 0.070156 0.36214 -0.965744
2010-08-10 07:30:17 51°11.162 2°41.859 22.562 0.070156 0.36214 -0.965744
2010-08-10 07:30:21 51°11.157 2°41.858 22.5536 0.070052 0.361597 -0.965744
2010-08-10 07:30:27 51°11.151 2°41.857 22.5502 0.070156 0.362162 -0.965744
2010-08-10 07:30:32 51°11.147 2°41.857 22.551 0.070052 0.361614 -0.965744
2010-08-10 07:30:37 51°11.141 2°41.857 22.5534 0.070156 0.362162 -0.965744
2010-08-10 07:30:42 51°11.136 2°41.858 22.558 0.070052 0.361614 -0.965744
2010-08-10 07:30:47 51°11.131 2°41.858 22.5667 0.070052 0.361614 -0.965744
2010-08-10 07:30:53 51°11.125 2°41.859 22.5691 0.070052 0.361608 -0.965744
2010-08-10 07:30:57 51°11.121 2°41.86 22.576 0.070052 0.361603 -1.000568
2010-08-10 07:31:35 51°11.076 2°41.862 22.5729 0.070052 0.361646 -0.965744
2010-08-10 07:31:52 51°11.055 2°41.859 22.5738 0.070052 0.361667 -1.000568
2010-08-10 07:31:53 51°11.054 2°41.859 22.5738 0.070052 0.361667 -1.000568
2010-08-10 07:32:01 51°11.043 2°41.857 22.5886 0.070052 0.361678 -0.93092
2010-08-10 07:33:17 51°10.944 2°41.817 22.6026 0.070052 0.3617 -0.965744
2010-08-10 07:33:21 51°10.939 2°41.813 22.6072 0.070052 0.361727 -0.965744
2010-08-10 07:33:27 51°10.931 2°41.807 22.6136 0.070052 0.361727 -0.965744
2010-08-10 07:33:32 51°10.925 2°41.802 22.6187 0.070052 0.361732 -0.965744
2010-08-10 07:33:37 51°10.919 2°41.796 22.6336 0.070052 0.361732 -0.965744
2010-08-10 07:33:42 51°10.913 2°41.791 22.6287 0.070052 0.361737 -0.965744
2010-08-10 07:33:47 51°10.906 2°41.786 22.6343 0.070052 0.361737 -0.965744
2010-08-10 07:33:53 51°10.899 2°41.78 22.6396 0.070052 0.361743 -0.965744
2010-08-10 07:33:57 51°10.895 2°41.776 22.6472 0.070052 0.361743 -0.965744
2010-08-10 07:34:02 51°10.889 2°41.771 22.6479 0.070052 0.361743 -0.965744
2010-08-10 07:34:07 51°10.884 2°41.767 22.657 0.070052 0.361754 -0.93092
2010-08-10 07:34:12 51°10.878 2°41.763 22.663 0.070052 0.361754 -0.965744
2010-08-10 07:34:17 51°10.873 2°41.758 22.6699 0.070052 0.361754 -0.965744
2010-08-10 07:34:22 51°10.868 2°41.754 22.6765 0.070052 0.361754 -0.965744
2010-08-10 07:34:27 51°10.863 2°41.75 22.6739 0.070052 0.361759 -0.93092
2010-08-10 07:34:33 51°10.857 2°41.746 22.6804 0.070052 0.36177 -0.93092
2010-08-10 07:34:37 51°10.853 2°41.742 22.6815 0.070052 0.36177 -0.965744
2010-08-10 07:34:42 51°10.848 2°41.739 22.6865 0.070052 0.36177 -0.965744
2010-08-10 07:34:47 51°10.844 2°41.735 22.6852 0.070052 0.36177 -0.965744
2010-08-10 07:34:52 51°10.839 2°41.731 22.6886 0.070052 0.361775 -0.965744
2010-08-10 07:34:57 51°10.834 2°41.727 22.6982 0.070052 0.36177 -0.965744
2010-08-10 07:35:02 51°10.83 2°41.723 22.6953 0.070052 0.36177 -0.93092
2010-08-10 07:35:07 51°10.825 2°41.719 22.6951 0.070052 0.361775 -0.965744
2010-08-10 07:35:12 51°10.821 2°41.715 22.6968 0.070052 0.36178 -0.965744
2010-08-10 07:35:17 51°10.817 2°41.711 22.7071 0.070052 0.36178 -0.965744
2010-08-10 07:35:22 51°10.813 2°41.706 22.7067 0.070052 0.361786 -1.000568
2010-08-10 07:35:27 51°10.809 2°41.702 22.7132 0.070052 0.361786 -0.965744
2010-08-10 07:35:32 51°10.805 2°41.697 22.7124 0.070052 0.361797 -0.93092
2010-08-10 07:35:37 51°10.801 2°41.692 22.7173 0.070052 0.361802 -0.965744
2010-08-10 07:35:41 51°10.797 2°41.688 22.723 0.070052 0.361807 -0.93092
2010-08-10 07:35:47 51°10.793 2°41.682 22.7183 0.070052 0.361807 -0.93092
2010-08-10 07:35:52 51°10.789 2°41.677 22.7258 0.070052 0.361813 -0.965744
2010-08-10 07:35:57 51°10.786 2°41.672 22.7245 0.070052 0.361813 -0.965744
2010-08-10 07:36:02 51°10.782 2°41.666 22.7205 0.070052 0.361818 -0.965744
2010-08-10 07:36:07 51°10.779 2°41.661 22.7246 0.070052 0.361813 -0.965744
2010-08-10 07:36:12 51°10.776 2°41.655 22.7318 0.070052 0.361818 -0.965744
2010-08-10 07:36:17 51°10.772 2°41.649 22.731 0.070052 0.361818 -0.965744
2010-08-10 07:36:21 51°10.77 2°41.645 22.7308 0.070052 0.361829 -0.965744
2010-08-10 07:36:27 51°10.766 2°41.637 22.737 0.070052 0.361834 -0.965744
2010-08-10 07:36:32 51°10.763 2°41.631 22.742 0.070052 0.361834 -0.965744
2010-08-10 07:36:37 51°10.76 2°41.625 22.7484 0.070052 0.361834 -0.93092
2010-08-10 07:36:42 51°10.757 2°41.619 22.7524 0.070052 0.36184 -0.965744
2010-08-10 07:36:47 51°10.754 2°41.613 22.7479 0.070052 0.36184 -0.965744
2010-08-10 07:36:53 51°10.751 2°41.605 22.749 0.070052 0.361845 -0.965744
2010-08-10 07:36:57 51°10.749 2°41.599 22.7523 0.070052 0.361851 -1.000568
2010-08-10 07:37:02 51°10.747 2°41.593 22.758 0.070052 0.361851 -0.965744
2010-08-10 07:37:07 51°10.744 2°41.586 22.7609 0.070052 0.361851 -1.000568
2010-08-10 07:37:12 51°10.742 2°41.579 22.7657 0.070052 0.361861 -0.965744
2010-08-10 07:37:17 51°10.74 2°41.572 22.7643 0.070052 0.361861 -0.965744
2010-08-10 07:37:22 51°10.737 2°41.565 22.7701 0.070052 0.361861 -0.93092
2010-08-10 07:37:27 51°10.735 2°41.558 22.7704 0.070052 0.361861 -0.965744
2010-08-10 07:37:32 51°10.733 2°41.551 22.7759 0.070052 0.361872 -0.965744
2010-08-10 07:37:37 51°10.731 2°41.544 22.7751 0.070052 0.361872 -0.93092
2010-08-10 07:37:42 51°10.729 2°41.537 22.7773 0.070052 0.361872 -0.965744
2010-08-10 07:37:47 51°10.727 2°41.53 22.7799 0.070052 0.361872 -0.965744
2010-08-10 07:37:52 51°10.725 2°41.523 22.7772 0.070052 0.361872 -0.965744
2010-08-10 07:37:57 51°10.722 2°41.516 22.7841 0.070052 0.361878 -0.965744
2010-08-10 07:38:01 51°10.721 2°41.511 22.7894 0.070052 0.361878 -0.965744
2010-08-10 07:38:07 51°10.718 2°41.502 22.7886 0.070052 0.361888 -0.965744
2010-08-10 07:38:12 51°10.716 2°41.496 22.7906 0.070052 0.361888 -0.965744
2010-08-10 07:38:17 51°10.714 2°41.489 22.7945 0.070052 0.361888 -0.965744
2010-08-10 07:38:22 51°10.712 2°41.482 22.7909 0.070052 0.361894 -1.000568
2010-08-10 07:38:27 51°10.71 2°41.475 22.7986 0.070052 0.361894 -0.93092
2010-08-10 07:38:32 51°10.707 2°41.469 22.7941 0.070052 0.361888 -0.93092
2010-08-10 07:38:37 51°10.705 2°41.462 22.8069 0.070052 0.361899 -0.965744
2010-08-10 07:38:41 51°10.703 2°41.457 22.8097 0.070052 0.361899 -0.965744
2010-08-10 07:38:47 51°10.7 2°41.448 22.8078 0.070052 0.361899 -0.965744
2010-08-10 07:38:52 51°10.698 2°41.442 22.8078 0.070052 0.361899 -0.965744
2010-08-10 07:38:57 51°10.696 2°41.435 22.8138 0.070052 0.361899 -0.965744
2010-08-10 07:39:02 51°10.693 2°41.428 22.8177 0.070052 0.36191 -0.93092
2010-08-10 07:39:07 51°10.691 2°41.421 22.8219 0.070052 0.36191 -0.965744
2010-08-10 07:39:12 51°10.688 2°41.414 22.8102 0.070052 0.361915 -1.000568
2010-08-10 07:39:17 51°10.686 2°41.408 22.8226 0.070052 0.361915 -1.000568
2010-08-10 07:39:21 51°10.684 2°41.402 22.8258 0.070052 0.361921 -0.965744
2010-08-10 07:39:27 51°10.681 2°41.394 22.8268 0.070052 0.361921 -0.965744
2010-08-10 07:39:32 51°10.678 2°41.388 22.8327 0.070052 0.361931 -1.000568
2010-08-10 07:39:37 51°10.676 2°41.381 22.8341 0.070052 0.361931 -0.965744
2010-08-10 07:39:42 51°10.673 2°41.374 22.8348 0.070052 0.361937 -0.965744
2010-08-10 07:39:47 51°10.671 2°41.368 22.8341 0.070052 0.361937 -0.965744
2010-08-10 07:39:52 51°10.668 2°41.361 22.8387 0.070052 0.361937 -0.93092
2010-08-10 07:39:57 51°10.665 2°41.354 22.8419 0.070052 0.361937 -0.965744
2010-08-10 07:40:02 51°10.663 2°41.347 22.8421 0.070052 0.361942 -0.965744
2010-08-10 07:40:07 51°10.66 2°41.34 22.8445 0.070052 0.361942 -0.965744
2010-08-10 07:40:12 51°10.658 2°41.333 22.8444 0.070052 0.361953 -0.965744
2010-08-10 07:40:17 51°10.655 2°41.326 22.8473 0.070052 0.361953 -0.965744
2010-08-10 07:40:22 51°10.653 2°41.319 22.8573 0.070052 0.361958 -0.93092
2010-08-10 07:40:27 51°10.65 2°41.312 22.8534 0.070052 0.361958 -0.93092
2010-08-10 07:40:32 51°10.647 2°41.305 22.8614 0.070052 0.361964 -0.965744
2010-08-10 07:40:37 51°10.645 2°41.298 22.8576 0.070052 0.361964 -0.965744
2010-08-10 07:40:42 51°10.642 2°41.292 22.8563 0.070052 0.361969 -1.000568
2010-08-10 07:40:47 51°10.64 2°41.285 22.8687 0.070052 0.361969 -1.000568
2010-08-10 07:40:52 51°10.637 2°41.278 22.8647 0.070052 0.361975 -1.000568
2010-08-10 07:40:57 51°10.635 2°41.271 22.8737 0.070052 0.361975 -0.93092
2010-08-10 07:41:01 51°10.632 2°41.265 22.8699 0.070052 0.361985 -1.000568
2010-08-10 07:41:07 51°10.629 2°41.257 22.8735 0.070052 0.36198 -0.965744
2010-08-10 07:41:12 51°10.627 2°41.25 22.8789 0.070052 0.361985 -0.965744
2010-08-10 07:41:17 51°10.624 2°41.243 22.8734 0.070052 0.361985 -0.965744
2010-08-10 07:41:22 51°10.622 2°41.236 22.876 0.070052 0.361985 -0.965744
2010-08-10 07:41:27 51°10.619 2°41.229 22.8839 0.070052 0.361991 -0.965744
2010-08-10 07:41:32 51°10.616 2°41.223 22.8831 0.070052 0.361996 -0.965744
2010-08-10 07:41:37 51°10.614 2°41.216 22.8905 0.070052 0.361996 -0.965744
2010-08-10 07:41:42 51°10.611 2°41.209 22.8897 0.070052 0.362002 -0.965744
2010-08-10 07:41:47 51°10.608 2°41.202 22.8971 0.070052 0.362002 -0.965744
2010-08-10 07:41:52 51°10.606 2°41.195 22.8857 0.070052 0.362007 -0.965744
2010-08-10 07:41:57 51°10.603 2°41.188 22.8938 0.070052 0.362007 -1.000568
2010-08-10 07:42:02 51°10.601 2°41.181 22.9021 0.070052 0.362012 -0.965744
2010-08-10 07:42:07 51°10.598 2°41.175 22.9012 0.070052 0.362012 -1.000568
2010-08-10 07:42:12 51°10.595 2°41.168 22.9073 0.070052 0.362023 -0.965744
2010-08-10 07:42:17 51°10.593 2°41.161 22.9014 0.070052 0.362023 -0.965744
2010-08-10 07:42:22 51°10.59 2°41.154 22.9109 0.070052 0.362023 -0.965744
2010-08-10 07:42:27 51°10.588 2°41.147 22.9158 0.070052 0.362034 -0.965744
2010-08-10 07:42:32 51°10.585 2°41.14 22.9132 0.070052 0.362034 -0.965744
2010-08-10 07:42:37 51°10.583 2°41.133 22.9173 0.070052 0.362034 -0.965744
2010-08-10 07:42:41 51°10.581 2°41.128 22.919 0.070052 0.362039 -0.965744
2010-08-10 07:42:47 51°10.577 2°41.12 22.9255 0.070052 0.362039 -0.965744
2010-08-10 07:42:52 51°10.575 2°41.113 22.9222 0.070052 0.362039 -0.965744
2010-08-10 07:42:57 51°10.572 2°41.106 22.924 0.070052 0.362045 -0.965744
2010-08-10 07:43:02 51°10.57 2°41.099 22.9304 0.070052 0.362045 -0.965744
2010-08-10 07:43:07 51°10.567 2°41.092 22.9337 0.070052 0.36205 -0.965744
2010-08-10 07:43:12 51°10.564 2°41.085 22.9343 0.070052 0.362056 -0.965744
2010-08-10 07:43:17 51°10.562 2°41.079 22.9324 0.070052 0.362056 -0.965744
2010-08-10 07:43:21 51°10.56 2°41.073 22.9311 0.070052 0.362061 -0.93092
2010-08-10 07:43:27 51°10.556 2°41.065 22.9398 0.070052 0.362066 -1.000568
2010-08-10 07:43:32 51°10.554 2°41.058 22.9369 0.070052 0.362066 -1.000568
2010-08-10 07:43:37 51°10.551 2°41.052 22.9442 0.070052 0.362072 -0.965744
2010-08-10 07:43:42 51°10.548 2°41.045 22.9467 0.070052 0.362072 -0.93092
2010-08-10 07:43:47 51°10.546 2°41.038 22.9507 0.070052 0.362072 -0.93092
2010-08-10 07:43:53 51°10.543 2°41.03 22.9518 0.070052 0.362077 -0.93092
2010-08-10 07:43:57 51°10.541 2°41.024 22.9468 0.070052 0.362083 -0.93092
2010-08-10 07:44:02 51°10.538 2°41.017 22.9565 0.070052 0.362088 -0.965744
2010-08-10 07:44:07 51°10.535 2°41.01 22.9583 0.070052 0.362088 -0.965744
2010-08-10 07:44:12 51°10.532 2°41.004 22.9589 0.070052 0.362088 -0.965744
2010-08-10 07:44:17 51°10.53 2°40.997 22.965 0.070052 0.362088 -0.965744
2010-08-10 07:44:22 51°10.527 2°40.99 22.9645 0.070052 0.362093 -0.965744
2010-08-10 07:44:27 51°10.524 2°40.983 22.9689 0.070052 0.362099 -0.965744
2010-08-10 07:44:32 51°10.522 2°40.976 22.9702 0.070052 0.362104 -0.93092
2010-08-10 07:44:37 51°10.519 2°40.97 22.9741 0.070052 0.36211 -0.965744
2010-08-10 07:44:41 51°10.517 2°40.964 22.9804 0.070052 0.362104 -0.93092
2010-08-10 07:44:47 51°10.514 2°40.956 22.9761 0.070052 0.362104 -0.93092
2010-08-10 07:44:52 51°10.511 2°40.949 22.9777 0.070052 0.362115 -0.965744
2010-08-10 07:44:57 51°10.509 2°40.942 22.976 0.070052 0.36212 -0.965744
2010-08-10 07:45:02 51°10.506 2°40.935 22.9869 0.070052 0.36212 -0.965744
2010-08-10 07:45:07 51°10.504 2°40.928 22.9869 0.070052 0.36212 -0.965744
2010-08-10 07:45:12 51°10.501 2°40.922 22.9893 0.070052 0.362126 -0.93092
2010-08-10 07:45:17 51°10.498 2°40.915 22.9899 0.070052 0.362126 -0.93092
2010-08-10 07:45:22 51°10.496 2°40.908 22.9984 0.070052 0.362131 -0.965744
2010-08-10 07:45:27 51°10.493 2°40.901 22.9961 0.070052 0.362131 -0.965744
2010-08-10 07:45:32 51°10.49 2°40.895 22.9976 0.070052 0.362142 -0.93092
2010-08-10 07:45:37 51°10.488 2°40.888 22.9993 0.070052 0.362131 -0.965744
2010-08-10 07:45:41 51°10.486 2°40.883 23.0043 0.070052 0.362142 -0.965744
2010-08-10 07:45:47 51°10.482 2°40.875 23 0.070052 0.362142 -0.965744
2010-08-10 07:45:52 51°10.48 2°40.868 23.0085 0.070052 0.362147 -0.965744
2010-08-10 07:45:57 51°10.477 2°40.861 23.0142 0.070052 0.362147 -0.965744
2010-08-10 07:46:02 51°10.475 2°40.855 23.0091 0.070052 0.362158 -0.93092
2010-08-10 07:46:07 51°10.472 2°40.848 23.0192 0.070052 0.362158 -0.965744
2010-08-10 07:46:12 51°10.47 2°40.842 23.0208 0.070052 0.362164 -1.000568
2010-08-10 07:46:17 51°10.467 2°40.835 23.0243 0.070052 0.362164 -1.000568
2010-08-10 07:46:22 51°10.464 2°40.828 23.0186 0.070052 0.362164 -0.965744
2010-08-10 07:46:27 51°10.462 2°40.822 23.0185 0.070052 0.362169 -0.965744
2010-08-10 07:46:32 51°10.459 2°40.815 23.0265 0.070052 0.362169 -0.965744
2010-08-10 07:46:37 51°10.457 2°40.809 23.0249 0.070052 0.362169 -0.965744
2010-08-10 07:46:42 51°10.454 2°40.802 23.0293 0.070052 0.36218 -0.93092
2010-08-10 07:46:47 51°10.451 2°40.796 23.0322 0.070052 0.36218 -0.93092
2010-08-10 07:46:52 51°10.449 2°40.789 23.0322 0.070052 0.36218 -0.965744
2010-08-10 07:46:57 51°10.446 2°40.782 23.036 0.069948 0.361631 -0.965744
2010-08-10 07:47:02 51°10.444 2°40.776 23.0358 0.069948 0.361636 -0.965744
2010-08-10 07:47:07 51°10.441 2°40.769 23.0398 0.070052 0.362191 -0.93092
2010-08-10 07:47:12 51°10.438 2°40.763 23.0471 0.069948 0.361642 -0.93092
2010-08-10 07:47:17 51°10.436 2°40.756 23.0433 0.069948 0.361642 -0.93092
2010-08-10 07:47:21 51°10.434 2°40.751 23.0435 0.070052 0.362196 -0.93092
2010-08-10 07:47:27 51°10.431 2°40.743 23.0509 0.070052 0.362196 -0.965744
2010-08-10 07:47:32 51°10.428 2°40.736 23.0538 0.070052 0.362201 -0.965744